<?xml version="1.0" encoding="UTF-8" standalone="no" ?>
<gpx xmlns="http://www.topografix.com/GPX/1/1" xmlns:xsi="http://www.w3.org/2001/XMLSchema-instance" xsi:schemaLocation="http://www.topografix.com/GPX/1/1 http://www.topografix.com/GPX/1/1/gpx.xsd" version="1.1" creator="VisuGPX - https://www.visugpx.com">
  <metadata>
    <name>103_Circuit 63 km Les Herbiers_Les Herbiers édité par cth85.com</name>
    <desc><![CDATA[Circuit de 63 km passant par:
Les Herbiers
la croix bara
la bonnelière
Saint Paul en Pareds
Mesnard la Barotière
Vendrennes
Saint Fulgent
Bazoges en Paillers
Les Landes Genusson
La Gaubretière
Les Herbiers]]></desc>
  </metadata>
  <trk>
    <name><![CDATA[10313594-63_103]]></name>
    <extensions>
      <line xmlns="http://www.topografix.com/GPX/gpx_style/0/2">
        <color>0000FF</color>
        <width>4</width>
      </line>
    </extensions>
    <trkseg>
      <trkpt lat="46.86441" lon="-1.00555">
        <ele>118.2</ele>
        <time>2024-10-17T21:08:18.000Z</time>
      </trkpt>
      <trkpt lat="46.86406" lon="-1.00559">
        <ele>119.1</ele>
        <time>2024-10-17T21:08:25.730Z</time>
      </trkpt>
      <trkpt lat="46.86391" lon="-1.00556">
        <ele>119</ele>
        <time>2024-10-17T21:08:28.135Z</time>
      </trkpt>
      <trkpt lat="46.86381" lon="-1.00562">
        <ele>119.2</ele>
        <time>2024-10-17T21:08:30.337Z</time>
      </trkpt>
      <trkpt lat="46.86335" lon="-1.00614">
        <ele>118.2</ele>
        <time>2024-10-17T21:08:38.752Z</time>
      </trkpt>
      <trkpt lat="46.86315" lon="-1.00632">
        <ele>117.8</ele>
        <time>2024-10-17T21:08:42.156Z</time>
      </trkpt>
      <trkpt lat="46.8627" lon="-1.00662">
        <ele>117.3</ele>
        <time>2024-10-17T21:08:49.770Z</time>
      </trkpt>
      <trkpt lat="46.86234" lon="-1.00681">
        <ele>116.2</ele>
        <time>2024-10-17T21:08:54.811Z</time>
      </trkpt>
      <trkpt lat="46.86228" lon="-1.00664">
        <ele>116</ele>
        <time>2024-10-17T21:08:56.736Z</time>
      </trkpt>
      <trkpt lat="46.86189" lon="-1.00512">
        <ele>114.9</ele>
        <time>2024-10-17T21:09:13.856Z</time>
      </trkpt>
      <trkpt lat="46.8617" lon="-1.00489">
        <ele>115</ele>
        <time>2024-10-17T21:09:18.189Z</time>
      </trkpt>
      <trkpt lat="46.86129" lon="-1.0046">
        <ele>115</ele>
        <time>2024-10-17T21:09:25.884Z</time>
      </trkpt>
      <trkpt lat="46.86046" lon="-1.00414">
        <ele>116</ele>
        <time>2024-10-17T21:09:42.643Z</time>
      </trkpt>
      <trkpt lat="46.86041" lon="-1.00409">
        <ele>116</ele>
        <time>2024-10-17T21:09:43.666Z</time>
      </trkpt>
      <trkpt lat="46.86052" lon="-1.00363">
        <ele>116</ele>
        <time>2024-10-17T21:09:49.296Z</time>
      </trkpt>
      <trkpt lat="46.86171" lon="-0.99914">
        <ele>120</ele>
        <time>2024-10-17T21:10:52.031Z</time>
      </trkpt>
      <trkpt lat="46.86212" lon="-0.99771">
        <ele>120.6</ele>
        <time>2024-10-17T21:11:10.954Z</time>
      </trkpt>
      <trkpt lat="46.86221" lon="-0.99734">
        <ele>121.5</ele>
        <time>2024-10-17T21:11:17.424Z</time>
      </trkpt>
      <trkpt lat="46.86312" lon="-0.99257">
        <ele>125.8</ele>
        <time>2024-10-17T21:12:22.305Z</time>
      </trkpt>
      <trkpt lat="46.86335" lon="-0.99141">
        <ele>128.9</ele>
        <time>2024-10-17T21:12:43.171Z</time>
      </trkpt>
      <trkpt lat="46.86345" lon="-0.99102">
        <ele>129.1</ele>
        <time>2024-10-17T21:12:48.323Z</time>
      </trkpt>
      <trkpt lat="46.86362" lon="-0.9905">
        <ele>131.2</ele>
        <time>2024-10-17T21:13:00.439Z</time>
      </trkpt>
      <trkpt lat="46.86386" lon="-0.98993">
        <ele>134</ele>
        <time>2024-10-17T21:13:16.044Z</time>
      </trkpt>
      <trkpt lat="46.86448" lon="-0.98872">
        <ele>139.9</ele>
        <time>2024-10-17T21:13:49.431Z</time>
      </trkpt>
      <trkpt lat="46.86514" lon="-0.98737">
        <ele>146.7</ele>
        <time>2024-10-17T21:14:27.483Z</time>
      </trkpt>
      <trkpt lat="46.86527" lon="-0.98706">
        <ele>147.6</ele>
        <time>2024-10-17T21:14:33.666Z</time>
      </trkpt>
      <trkpt lat="46.86563" lon="-0.98597">
        <ele>149.4</ele>
        <time>2024-10-17T21:14:51.124Z</time>
      </trkpt>
      <trkpt lat="46.86601" lon="-0.98456">
        <ele>147.9</ele>
        <time>2024-10-17T21:15:06.477Z</time>
      </trkpt>
      <trkpt lat="46.86614" lon="-0.98397">
        <ele>145</ele>
        <time>2024-10-17T21:15:10.773Z</time>
      </trkpt>
      <trkpt lat="46.86624" lon="-0.98376">
        <ele>144.9</ele>
        <time>2024-10-17T21:15:13.576Z</time>
      </trkpt>
      <trkpt lat="46.86629" lon="-0.9837">
        <ele>144.3</ele>
        <time>2024-10-17T21:15:14.232Z</time>
      </trkpt>
      <trkpt lat="46.86628" lon="-0.98189">
        <ele>147.9</ele>
        <time>2024-10-17T21:15:42.563Z</time>
      </trkpt>
      <trkpt lat="46.86624" lon="-0.98135">
        <ele>150.1</ele>
        <time>2024-10-17T21:15:54.904Z</time>
      </trkpt>
      <trkpt lat="46.86618" lon="-0.98076">
        <ele>151.5</ele>
        <time>2024-10-17T21:16:04.824Z</time>
      </trkpt>
      <trkpt lat="46.86608" lon="-0.98008">
        <ele>153.2</ele>
        <time>2024-10-17T21:16:16.587Z</time>
      </trkpt>
      <trkpt lat="46.86596" lon="-0.97947">
        <ele>154.1</ele>
        <time>2024-10-17T21:16:25.640Z</time>
      </trkpt>
      <trkpt lat="46.86572" lon="-0.97844">
        <ele>153.6</ele>
        <time>2024-10-17T21:16:37.449Z</time>
      </trkpt>
      <trkpt lat="46.86545" lon="-0.97754">
        <ele>152.3</ele>
        <time>2024-10-17T21:16:47.001Z</time>
      </trkpt>
      <trkpt lat="46.86498" lon="-0.97631">
        <ele>148</ele>
        <time>2024-10-17T21:16:58.278Z</time>
      </trkpt>
      <trkpt lat="46.86483" lon="-0.97597">
        <ele>146.9</ele>
        <time>2024-10-17T21:17:01.631Z</time>
      </trkpt>
      <trkpt lat="46.86454" lon="-0.97538">
        <ele>144.3</ele>
        <time>2024-10-17T21:17:07.148Z</time>
      </trkpt>
      <trkpt lat="46.863" lon="-0.97267">
        <ele>138.6</ele>
        <time>2024-10-17T21:17:40.202Z</time>
      </trkpt>
      <trkpt lat="46.86289" lon="-0.97252">
        <ele>138.6</ele>
        <time>2024-10-17T21:17:42.743Z</time>
      </trkpt>
      <trkpt lat="46.86269" lon="-0.97238">
        <ele>139.6</ele>
        <time>2024-10-17T21:17:48.887Z</time>
      </trkpt>
      <trkpt lat="46.86262" lon="-0.97236">
        <ele>139.8</ele>
        <time>2024-10-17T21:17:50.500Z</time>
      </trkpt>
      <trkpt lat="46.86249" lon="-0.97239">
        <ele>140</ele>
        <time>2024-10-17T21:17:53.088Z</time>
      </trkpt>
      <trkpt lat="46.86236" lon="-0.97232">
        <ele>139.5</ele>
        <time>2024-10-17T21:17:54.814Z</time>
      </trkpt>
      <trkpt lat="46.86231" lon="-0.97223">
        <ele>139.3</ele>
        <time>2024-10-17T21:17:55.888Z</time>
      </trkpt>
      <trkpt lat="46.86227" lon="-0.97213">
        <ele>139.6</ele>
        <time>2024-10-17T21:17:57.897Z</time>
      </trkpt>
      <trkpt lat="46.86226" lon="-0.97203">
        <ele>139.9</ele>
        <time>2024-10-17T21:17:59.773Z</time>
      </trkpt>
      <trkpt lat="46.86226" lon="-0.97193">
        <ele>140.3</ele>
        <time>2024-10-17T21:18:02.023Z</time>
      </trkpt>
      <trkpt lat="46.8623" lon="-0.97179">
        <ele>140.4</ele>
        <time>2024-10-17T21:18:03.949Z</time>
      </trkpt>
      <trkpt lat="46.86229" lon="-0.97161">
        <ele>140.2</ele>
        <time>2024-10-17T21:18:05.752Z</time>
      </trkpt>
      <trkpt lat="46.86221" lon="-0.97131">
        <ele>140.3</ele>
        <time>2024-10-17T21:18:09.639Z</time>
      </trkpt>
      <trkpt lat="46.86212" lon="-0.97114">
        <ele>140.6</ele>
        <time>2024-10-17T21:18:12.695Z</time>
      </trkpt>
      <trkpt lat="46.86147" lon="-0.96996">
        <ele>139.2</ele>
        <time>2024-10-17T21:18:28.175Z</time>
      </trkpt>
      <trkpt lat="46.85559" lon="-0.9596">
        <ele>110</ele>
        <time>2024-10-17T21:20:26.684Z</time>
      </trkpt>
      <trkpt lat="46.85503" lon="-0.9587">
        <ele>110.1</ele>
        <time>2024-10-17T21:20:40.905Z</time>
      </trkpt>
      <trkpt lat="46.85455" lon="-0.95802">
        <ele>107.9</ele>
        <time>2024-10-17T21:20:49.428Z</time>
      </trkpt>
      <trkpt lat="46.85428" lon="-0.95768">
        <ele>106.4</ele>
        <time>2024-10-17T21:20:53.675Z</time>
      </trkpt>
      <trkpt lat="46.85397" lon="-0.95734">
        <ele>104.5</ele>
        <time>2024-10-17T21:20:58.075Z</time>
      </trkpt>
      <trkpt lat="46.85289" lon="-0.95626">
        <ele>105.7</ele>
        <time>2024-10-17T21:21:22.259Z</time>
      </trkpt>
      <trkpt lat="46.85238" lon="-0.95565">
        <ele>109.5</ele>
        <time>2024-10-17T21:21:43.707Z</time>
      </trkpt>
      <trkpt lat="46.85165" lon="-0.95452">
        <ele>117</ele>
        <time>2024-10-17T21:22:24.829Z</time>
      </trkpt>
      <trkpt lat="46.85131" lon="-0.95388">
        <ele>120.1</ele>
        <time>2024-10-17T21:22:42.463Z</time>
      </trkpt>
      <trkpt lat="46.85103" lon="-0.95322">
        <ele>122.3</ele>
        <time>2024-10-17T21:22:56.529Z</time>
      </trkpt>
      <trkpt lat="46.85077" lon="-0.95244">
        <ele>123</ele>
        <time>2024-10-17T21:23:07.795Z</time>
      </trkpt>
      <trkpt lat="46.85062" lon="-0.9519">
        <ele>123.8</ele>
        <time>2024-10-17T21:23:16.050Z</time>
      </trkpt>
      <trkpt lat="46.85054" lon="-0.95155">
        <ele>123.9</ele>
        <time>2024-10-17T21:23:20.481Z</time>
      </trkpt>
      <trkpt lat="46.85049" lon="-0.95118">
        <ele>123.5</ele>
        <time>2024-10-17T21:23:24.268Z</time>
      </trkpt>
      <trkpt lat="46.85046" lon="-0.95081">
        <ele>123.7</ele>
        <time>2024-10-17T21:23:28.916Z</time>
      </trkpt>
      <trkpt lat="46.85044" lon="-0.95044">
        <ele>124.3</ele>
        <time>2024-10-17T21:23:34.383Z</time>
      </trkpt>
      <trkpt lat="46.85047" lon="-0.94956">
        <ele>126.6</ele>
        <time>2024-10-17T21:23:49.724Z</time>
      </trkpt>
      <trkpt lat="46.85057" lon="-0.94862">
        <ele>128.1</ele>
        <time>2024-10-17T21:24:03.645Z</time>
      </trkpt>
      <trkpt lat="46.8507" lon="-0.94787">
        <ele>130</ele>
        <time>2024-10-17T21:24:16.758Z</time>
      </trkpt>
      <trkpt lat="46.85079" lon="-0.94748">
        <ele>130.8</ele>
        <time>2024-10-17T21:24:23.153Z</time>
      </trkpt>
      <trkpt lat="46.85112" lon="-0.94638">
        <ele>133</ele>
        <time>2024-10-17T21:24:41.474Z</time>
      </trkpt>
      <trkpt lat="46.85125" lon="-0.94585">
        <ele>134</ele>
        <time>2024-10-17T21:24:49.984Z</time>
      </trkpt>
      <trkpt lat="46.85153" lon="-0.94435">
        <ele>136.7</ele>
        <time>2024-10-17T21:25:13.333Z</time>
      </trkpt>
      <trkpt lat="46.85165" lon="-0.94357">
        <ele>139.2</ele>
        <time>2024-10-17T21:25:28.603Z</time>
      </trkpt>
      <trkpt lat="46.85174" lon="-0.9428">
        <ele>141.9</ele>
        <time>2024-10-17T21:25:44.457Z</time>
      </trkpt>
      <trkpt lat="46.85178" lon="-0.94214">
        <ele>144.2</ele>
        <time>2024-10-17T21:25:57.942Z</time>
      </trkpt>
      <trkpt lat="46.85181" lon="-0.94024">
        <ele>147.5</ele>
        <time>2024-10-17T21:26:26.481Z</time>
      </trkpt>
      <trkpt lat="46.8518" lon="-0.93973">
        <ele>147.5</ele>
        <time>2024-10-17T21:26:32.377Z</time>
      </trkpt>
      <trkpt lat="46.85174" lon="-0.93895">
        <ele>150</ele>
        <time>2024-10-17T21:26:47.527Z</time>
      </trkpt>
      <trkpt lat="46.85166" lon="-0.93823">
        <ele>153.3</ele>
        <time>2024-10-17T21:27:05.708Z</time>
      </trkpt>
      <trkpt lat="46.85115" lon="-0.93521">
        <ele>161.2</ele>
        <time>2024-10-17T21:27:59.204Z</time>
      </trkpt>
      <trkpt lat="46.85085" lon="-0.93368">
        <ele>163.7</ele>
        <time>2024-10-17T21:28:22.473Z</time>
      </trkpt>
      <trkpt lat="46.85055" lon="-0.93247">
        <ele>167.1</ele>
        <time>2024-10-17T21:28:45.006Z</time>
      </trkpt>
      <trkpt lat="46.85032" lon="-0.93162">
        <ele>171.2</ele>
        <time>2024-10-17T21:29:07.616Z</time>
      </trkpt>
      <trkpt lat="46.85019" lon="-0.93166">
        <ele>170.4</ele>
        <time>2024-10-17T21:29:09.018Z</time>
      </trkpt>
      <trkpt lat="46.85005" lon="-0.93161">
        <ele>169.7</ele>
        <time>2024-10-17T21:29:10.659Z</time>
      </trkpt>
      <trkpt lat="46.84893" lon="-0.93098">
        <ele>168</ele>
        <time>2024-10-17T21:29:28.487Z</time>
      </trkpt>
      <trkpt lat="46.84868" lon="-0.93094">
        <ele>168.5</ele>
        <time>2024-10-17T21:29:33.686Z</time>
      </trkpt>
      <trkpt lat="46.8482" lon="-0.93098">
        <ele>168.9</ele>
        <time>2024-10-17T21:29:42.496Z</time>
      </trkpt>
      <trkpt lat="46.84795" lon="-0.93101">
        <ele>169.1</ele>
        <time>2024-10-17T21:29:47.077Z</time>
      </trkpt>
      <trkpt lat="46.84774" lon="-0.93107">
        <ele>169.4</ele>
        <time>2024-10-17T21:29:51.234Z</time>
      </trkpt>
      <trkpt lat="46.84759" lon="-0.93112">
        <ele>169.6</ele>
        <time>2024-10-17T21:29:54.191Z</time>
      </trkpt>
      <trkpt lat="46.84712" lon="-0.93135">
        <ele>170</ele>
        <time>2024-10-17T21:30:03.251Z</time>
      </trkpt>
      <trkpt lat="46.84675" lon="-0.93155">
        <ele>170.4</ele>
        <time>2024-10-17T21:30:10.615Z</time>
      </trkpt>
      <trkpt lat="46.84591" lon="-0.93209">
        <ele>170.2</ele>
        <time>2024-10-17T21:30:25.802Z</time>
      </trkpt>
      <trkpt lat="46.84406" lon="-0.93322">
        <ele>167</ele>
        <time>2024-10-17T21:30:55.132Z</time>
      </trkpt>
      <trkpt lat="46.84338" lon="-0.93361">
        <ele>164.8</ele>
        <time>2024-10-17T21:31:04.652Z</time>
      </trkpt>
      <trkpt lat="46.84319" lon="-0.93367">
        <ele>165.2</ele>
        <time>2024-10-17T21:31:08.700Z</time>
      </trkpt>
      <trkpt lat="46.84303" lon="-0.9337">
        <ele>165.4</ele>
        <time>2024-10-17T21:31:11.781Z</time>
      </trkpt>
      <trkpt lat="46.84286" lon="-0.9337">
        <ele>165.6</ele>
        <time>2024-10-17T21:31:15.008Z</time>
      </trkpt>
      <trkpt lat="46.84139" lon="-0.93343">
        <ele>166.7</ele>
        <time>2024-10-17T21:31:41.917Z</time>
      </trkpt>
      <trkpt lat="46.84113" lon="-0.93335">
        <ele>166.9</ele>
        <time>2024-10-17T21:31:46.748Z</time>
      </trkpt>
      <trkpt lat="46.84089" lon="-0.93325">
        <ele>167</ele>
        <time>2024-10-17T21:31:51.130Z</time>
      </trkpt>
      <trkpt lat="46.84027" lon="-0.9329">
        <ele>167</ele>
        <time>2024-10-17T21:32:02.359Z</time>
      </trkpt>
      <trkpt lat="46.84003" lon="-0.9328">
        <ele>166.1</ele>
        <time>2024-10-17T21:32:05.467Z</time>
      </trkpt>
      <trkpt lat="46.83991" lon="-0.93278">
        <ele>166</ele>
        <time>2024-10-17T21:32:07.357Z</time>
      </trkpt>
      <trkpt lat="46.83978" lon="-0.93278">
        <ele>166</ele>
        <time>2024-10-17T21:32:09.554Z</time>
      </trkpt>
      <trkpt lat="46.8391" lon="-0.93305">
        <ele>166</ele>
        <time>2024-10-17T21:32:21.459Z</time>
      </trkpt>
      <trkpt lat="46.83781" lon="-0.93327">
        <ele>166.2</ele>
        <time>2024-10-17T21:32:43.727Z</time>
      </trkpt>
      <trkpt lat="46.83745" lon="-0.93323">
        <ele>166.3</ele>
        <time>2024-10-17T21:32:49.992Z</time>
      </trkpt>
      <trkpt lat="46.83648" lon="-0.93302">
        <ele>164.9</ele>
        <time>2024-10-17T21:33:04.546Z</time>
      </trkpt>
      <trkpt lat="46.83575" lon="-0.93273">
        <ele>162.4</ele>
        <time>2024-10-17T21:33:14.184Z</time>
      </trkpt>
      <trkpt lat="46.83557" lon="-0.93266">
        <ele>161.2</ele>
        <time>2024-10-17T21:33:16.099Z</time>
      </trkpt>
      <trkpt lat="46.83539" lon="-0.93263">
        <ele>160.3</ele>
        <time>2024-10-17T21:33:18.147Z</time>
      </trkpt>
      <trkpt lat="46.83503" lon="-0.93267">
        <ele>158.4</ele>
        <time>2024-10-17T21:33:22.148Z</time>
      </trkpt>
      <trkpt lat="46.83449" lon="-0.93279">
        <ele>157.2</ele>
        <time>2024-10-17T21:33:29.746Z</time>
      </trkpt>
      <trkpt lat="46.83397" lon="-0.93282">
        <ele>156.3</ele>
        <time>2024-10-17T21:33:37.272Z</time>
      </trkpt>
      <trkpt lat="46.83348" lon="-0.93273">
        <ele>155.4</ele>
        <time>2024-10-17T21:33:44.359Z</time>
      </trkpt>
      <trkpt lat="46.83294" lon="-0.93286">
        <ele>152.3</ele>
        <time>2024-10-17T21:33:50.267Z</time>
      </trkpt>
      <trkpt lat="46.82946" lon="-0.93274">
        <ele>137.2</ele>
        <time>2024-10-17T21:34:31.374Z</time>
      </trkpt>
      <trkpt lat="46.82912" lon="-0.9327">
        <ele>137.1</ele>
        <time>2024-10-17T21:34:36.980Z</time>
      </trkpt>
      <trkpt lat="46.82877" lon="-0.93254">
        <ele>136.1</ele>
        <time>2024-10-17T21:34:41.868Z</time>
      </trkpt>
      <trkpt lat="46.82793" lon="-0.93186">
        <ele>133</ele>
        <time>2024-10-17T21:34:54.174Z</time>
      </trkpt>
      <trkpt lat="46.82747" lon="-0.93162">
        <ele>136.3</ele>
        <time>2024-10-17T21:35:12.318Z</time>
      </trkpt>
      <trkpt lat="46.82759" lon="-0.93623">
        <ele>125.5</ele>
        <time>2024-10-17T21:35:52.181Z</time>
      </trkpt>
      <trkpt lat="46.82774" lon="-0.93936">
        <ele>128</ele>
        <time>2024-10-17T21:36:32.873Z</time>
      </trkpt>
      <trkpt lat="46.82779" lon="-0.94125">
        <ele>131.5</ele>
        <time>2024-10-17T21:37:01.820Z</time>
      </trkpt>
      <trkpt lat="46.82784" lon="-0.94183">
        <ele>132.5</ele>
        <time>2024-10-17T21:37:10.565Z</time>
      </trkpt>
      <trkpt lat="46.82799" lon="-0.94227">
        <ele>132.2</ele>
        <time>2024-10-17T21:37:15.798Z</time>
      </trkpt>
      <trkpt lat="46.82832" lon="-0.94284">
        <ele>131</ele>
        <time>2024-10-17T21:37:22.816Z</time>
      </trkpt>
      <trkpt lat="46.82903" lon="-0.94357">
        <ele>131.1</ele>
        <time>2024-10-17T21:37:37.645Z</time>
      </trkpt>
      <trkpt lat="46.82924" lon="-0.94396">
        <ele>131.3</ele>
        <time>2024-10-17T21:37:43.719Z</time>
      </trkpt>
      <trkpt lat="46.82936" lon="-0.94438">
        <ele>131.7</ele>
        <time>2024-10-17T21:37:49.695Z</time>
      </trkpt>
      <trkpt lat="46.82935" lon="-0.94493">
        <ele>131.7</ele>
        <time>2024-10-17T21:37:56.055Z</time>
      </trkpt>
      <trkpt lat="46.82906" lon="-0.9478">
        <ele>130.6</ele>
        <time>2024-10-17T21:38:27.899Z</time>
      </trkpt>
      <trkpt lat="46.82891" lon="-0.94843">
        <ele>130.1</ele>
        <time>2024-10-17T21:38:34.873Z</time>
      </trkpt>
      <trkpt lat="46.82838" lon="-0.9497">
        <ele>128.2</ele>
        <time>2024-10-17T21:38:49.424Z</time>
      </trkpt>
      <trkpt lat="46.82775" lon="-0.9516">
        <ele>129</ele>
        <time>2024-10-17T21:39:15.175Z</time>
      </trkpt>
      <trkpt lat="46.82752" lon="-0.95207">
        <ele>129</ele>
        <time>2024-10-17T21:39:21.855Z</time>
      </trkpt>
      <trkpt lat="46.82708" lon="-0.9528">
        <ele>128.5</ele>
        <time>2024-10-17T21:39:32.344Z</time>
      </trkpt>
      <trkpt lat="46.82684" lon="-0.95359">
        <ele>127.6</ele>
        <time>2024-10-17T21:39:41.051Z</time>
      </trkpt>
      <trkpt lat="46.82652" lon="-0.95445">
        <ele>127.5</ele>
        <time>2024-10-17T21:39:52.209Z</time>
      </trkpt>
      <trkpt lat="46.82537" lon="-0.95598">
        <ele>125.3</ele>
        <time>2024-10-17T21:40:15.316Z</time>
      </trkpt>
      <trkpt lat="46.82525" lon="-0.95626">
        <ele>125.1</ele>
        <time>2024-10-17T21:40:18.836Z</time>
      </trkpt>
      <trkpt lat="46.8252" lon="-0.9572">
        <ele>126</ele>
        <time>2024-10-17T21:40:31.359Z</time>
      </trkpt>
      <trkpt lat="46.82492" lon="-0.95899">
        <ele>124.3</ele>
        <time>2024-10-17T21:40:50.127Z</time>
      </trkpt>
      <trkpt lat="46.82457" lon="-0.96067">
        <ele>121</ele>
        <time>2024-10-17T21:41:06.116Z</time>
      </trkpt>
      <trkpt lat="46.82465" lon="-0.96185">
        <ele>123.2</ele>
        <time>2024-10-17T21:41:24.280Z</time>
      </trkpt>
      <trkpt lat="46.82441" lon="-0.96336">
        <ele>125</ele>
        <time>2024-10-17T21:41:45.532Z</time>
      </trkpt>
      <trkpt lat="46.82409" lon="-0.96613">
        <ele>126.7</ele>
        <time>2024-10-17T21:42:20.944Z</time>
      </trkpt>
      <trkpt lat="46.82403" lon="-0.96685">
        <ele>126.8</ele>
        <time>2024-10-17T21:42:29.493Z</time>
      </trkpt>
      <trkpt lat="46.82405" lon="-0.9676">
        <ele>126.6</ele>
        <time>2024-10-17T21:42:37.858Z</time>
      </trkpt>
      <trkpt lat="46.82399" lon="-0.96899">
        <ele>127.4</ele>
        <time>2024-10-17T21:42:55.336Z</time>
      </trkpt>
      <trkpt lat="46.82411" lon="-0.97087">
        <ele>127.8</ele>
        <time>2024-10-17T21:43:17.823Z</time>
      </trkpt>
      <trkpt lat="46.82423" lon="-0.97203">
        <ele>127.7</ele>
        <time>2024-10-17T21:43:31.227Z</time>
      </trkpt>
      <trkpt lat="46.82483" lon="-0.97403">
        <ele>122.1</ele>
        <time>2024-10-17T21:43:49.643Z</time>
      </trkpt>
      <trkpt lat="46.8249" lon="-0.97452">
        <ele>120.6</ele>
        <time>2024-10-17T21:43:53.676Z</time>
      </trkpt>
      <trkpt lat="46.8249" lon="-0.97483">
        <ele>120</ele>
        <time>2024-10-17T21:43:56.480Z</time>
      </trkpt>
      <trkpt lat="46.82484" lon="-0.97521">
        <ele>119.6</ele>
        <time>2024-10-17T21:44:00.416Z</time>
      </trkpt>
      <trkpt lat="46.82457" lon="-0.97604">
        <ele>118.1</ele>
        <time>2024-10-17T21:44:09.030Z</time>
      </trkpt>
      <trkpt lat="46.82454" lon="-0.97638">
        <ele>117</ele>
        <time>2024-10-17T21:44:11.732Z</time>
      </trkpt>
      <trkpt lat="46.8247" lon="-0.97708">
        <ele>116</ele>
        <time>2024-10-17T21:44:18.883Z</time>
      </trkpt>
      <trkpt lat="46.82508" lon="-0.9793">
        <ele>117.3</ele>
        <time>2024-10-17T21:44:47.574Z</time>
      </trkpt>
      <trkpt lat="46.82507" lon="-0.98018">
        <ele>116.5</ele>
        <time>2024-10-17T21:44:56.589Z</time>
      </trkpt>
      <trkpt lat="46.82479" lon="-0.98164">
        <ele>114</ele>
        <time>2024-10-17T21:45:10.772Z</time>
      </trkpt>
      <trkpt lat="46.82409" lon="-0.98342">
        <ele>110</ele>
        <time>2024-10-17T21:45:29.316Z</time>
      </trkpt>
      <trkpt lat="46.82406" lon="-0.98411">
        <ele>111</ele>
        <time>2024-10-17T21:45:39.228Z</time>
      </trkpt>
      <trkpt lat="46.82377" lon="-0.9851">
        <ele>111.6</ele>
        <time>2024-10-17T21:45:52.708Z</time>
      </trkpt>
      <trkpt lat="46.82352" lon="-0.9854">
        <ele>111.3</ele>
        <time>2024-10-17T21:45:57.725Z</time>
      </trkpt>
      <trkpt lat="46.82351" lon="-0.98561">
        <ele>111.6</ele>
        <time>2024-10-17T21:46:00.733Z</time>
      </trkpt>
      <trkpt lat="46.82378" lon="-0.98621">
        <ele>113.7</ele>
        <time>2024-10-17T21:46:13.957Z</time>
      </trkpt>
      <trkpt lat="46.82396" lon="-0.98686">
        <ele>115.4</ele>
        <time>2024-10-17T21:46:25.781Z</time>
      </trkpt>
      <trkpt lat="46.82403" lon="-0.98746">
        <ele>116.9</ele>
        <time>2024-10-17T21:46:36.115Z</time>
      </trkpt>
      <trkpt lat="46.82377" lon="-0.98853">
        <ele>118</ele>
        <time>2024-10-17T21:46:51.229Z</time>
      </trkpt>
      <trkpt lat="46.82288" lon="-0.99106">
        <ele>118.3</ele>
        <time>2024-10-17T21:47:24.605Z</time>
      </trkpt>
      <trkpt lat="46.82253" lon="-0.99221">
        <ele>117.1</ele>
        <time>2024-10-17T21:47:37.425Z</time>
      </trkpt>
      <trkpt lat="46.8224" lon="-0.99256">
        <ele>115.9</ele>
        <time>2024-10-17T21:47:40.628Z</time>
      </trkpt>
      <trkpt lat="46.82254" lon="-0.99322">
        <ele>112.8</ele>
        <time>2024-10-17T21:47:45.455Z</time>
      </trkpt>
      <trkpt lat="46.8226" lon="-0.99367">
        <ele>111.5</ele>
        <time>2024-10-17T21:47:49.211Z</time>
      </trkpt>
      <trkpt lat="46.82259" lon="-0.99448">
        <ele>108.4</ele>
        <time>2024-10-17T21:47:55.223Z</time>
      </trkpt>
      <trkpt lat="46.82258" lon="-0.99481">
        <ele>106</ele>
        <time>2024-10-17T21:47:57.514Z</time>
      </trkpt>
      <trkpt lat="46.82263" lon="-0.99517">
        <ele>104.5</ele>
        <time>2024-10-17T21:48:00.175Z</time>
      </trkpt>
      <trkpt lat="46.82277" lon="-0.99562">
        <ele>103</ele>
        <time>2024-10-17T21:48:04.143Z</time>
      </trkpt>
      <trkpt lat="46.82278" lon="-0.99571">
        <ele>101.8</ele>
        <time>2024-10-17T21:48:04.775Z</time>
      </trkpt>
      <trkpt lat="46.82278" lon="-0.99582">
        <ele>100.2</ele>
        <time>2024-10-17T21:48:05.538Z</time>
      </trkpt>
      <trkpt lat="46.82262" lon="-0.99624">
        <ele>96.6</ele>
        <time>2024-10-17T21:48:08.873Z</time>
      </trkpt>
      <trkpt lat="46.82254" lon="-0.99662">
        <ele>94.2</ele>
        <time>2024-10-17T21:48:11.630Z</time>
      </trkpt>
      <trkpt lat="46.82246" lon="-0.99691">
        <ele>93.5</ele>
        <time>2024-10-17T21:48:14.363Z</time>
      </trkpt>
      <trkpt lat="46.82235" lon="-0.99715">
        <ele>91.5</ele>
        <time>2024-10-17T21:48:16.367Z</time>
      </trkpt>
      <trkpt lat="46.82225" lon="-0.99726">
        <ele>90.6</ele>
        <time>2024-10-17T21:48:17.636Z</time>
      </trkpt>
      <trkpt lat="46.82219" lon="-0.99742">
        <ele>89.6</ele>
        <time>2024-10-17T21:48:18.902Z</time>
      </trkpt>
      <trkpt lat="46.82222" lon="-0.9976">
        <ele>89</ele>
        <time>2024-10-17T21:48:20.358Z</time>
      </trkpt>
      <trkpt lat="46.82237" lon="-0.99809">
        <ele>88.5</ele>
        <time>2024-10-17T21:48:25.841Z</time>
      </trkpt>
      <trkpt lat="46.82262" lon="-0.9987">
        <ele>89.3</ele>
        <time>2024-10-17T21:48:35.535Z</time>
      </trkpt>
      <trkpt lat="46.8226" lon="-0.9987">
        <ele>89.2</ele>
        <time>2024-10-17T21:48:35.761Z</time>
      </trkpt>
      <trkpt lat="46.82171" lon="-0.99957">
        <ele>90.5</ele>
        <time>2024-10-17T21:48:56.160Z</time>
      </trkpt>
      <trkpt lat="46.82129" lon="-1.00011">
        <ele>91.3</ele>
        <time>2024-10-17T21:49:07.058Z</time>
      </trkpt>
      <trkpt lat="46.82108" lon="-1.00061">
        <ele>93</ele>
        <time>2024-10-17T21:49:17.811Z</time>
      </trkpt>
      <trkpt lat="46.82099" lon="-1.00217">
        <ele>99.9</ele>
        <time>2024-10-17T21:49:55.949Z</time>
      </trkpt>
      <trkpt lat="46.82102" lon="-1.00266">
        <ele>102.2</ele>
        <time>2024-10-17T21:50:08.583Z</time>
      </trkpt>
      <trkpt lat="46.82116" lon="-1.00348">
        <ele>104.2</ele>
        <time>2024-10-17T21:50:22.692Z</time>
      </trkpt>
      <trkpt lat="46.82117" lon="-1.00439">
        <ele>110</ele>
        <time>2024-10-17T21:50:55.322Z</time>
      </trkpt>
      <trkpt lat="46.8212" lon="-1.00505">
        <ele>112.6</ele>
        <time>2024-10-17T21:51:10.011Z</time>
      </trkpt>
      <trkpt lat="46.82133" lon="-1.00584">
        <ele>115.2</ele>
        <time>2024-10-17T21:51:25.741Z</time>
      </trkpt>
      <trkpt lat="46.82143" lon="-1.00668">
        <ele>116.3</ele>
        <time>2024-10-17T21:51:37.668Z</time>
      </trkpt>
      <trkpt lat="46.82148" lon="-1.00722">
        <ele>117.7</ele>
        <time>2024-10-17T21:51:47.091Z</time>
      </trkpt>
      <trkpt lat="46.82143" lon="-1.00773">
        <ele>118.1</ele>
        <time>2024-10-17T21:51:53.753Z</time>
      </trkpt>
      <trkpt lat="46.82144" lon="-1.00815">
        <ele>119.2</ele>
        <time>2024-10-17T21:52:01.081Z</time>
      </trkpt>
      <trkpt lat="46.82178" lon="-1.00953">
        <ele>121.2</ele>
        <time>2024-10-17T21:52:21.837Z</time>
      </trkpt>
      <trkpt lat="46.82222" lon="-1.01077">
        <ele>122</ele>
        <time>2024-10-17T21:52:39.361Z</time>
      </trkpt>
      <trkpt lat="46.82245" lon="-1.01129">
        <ele>123</ele>
        <time>2024-10-17T21:52:48.482Z</time>
      </trkpt>
      <trkpt lat="46.82271" lon="-1.01175">
        <ele>123</ele>
        <time>2024-10-17T21:52:55.379Z</time>
      </trkpt>
      <trkpt lat="46.82356" lon="-1.01291">
        <ele>122</ele>
        <time>2024-10-17T21:53:13.527Z</time>
      </trkpt>
      <trkpt lat="46.82579" lon="-1.01694">
        <ele>121</ele>
        <time>2024-10-17T21:54:11.873Z</time>
      </trkpt>
      <trkpt lat="46.82642" lon="-1.01792">
        <ele>119.4</ele>
        <time>2024-10-17T21:54:25.170Z</time>
      </trkpt>
      <trkpt lat="46.82673" lon="-1.01852">
        <ele>119</ele>
        <time>2024-10-17T21:54:33.257Z</time>
      </trkpt>
      <trkpt lat="46.82691" lon="-1.01892">
        <ele>119</ele>
        <time>2024-10-17T21:54:38.791Z</time>
      </trkpt>
      <trkpt lat="46.82711" lon="-1.01946">
        <ele>118</ele>
        <time>2024-10-17T21:54:44.548Z</time>
      </trkpt>
      <trkpt lat="46.82728" lon="-1.02005">
        <ele>118</ele>
        <time>2024-10-17T21:54:51.949Z</time>
      </trkpt>
      <trkpt lat="46.82795" lon="-1.02267">
        <ele>118.2</ele>
        <time>2024-10-17T21:55:24.606Z</time>
      </trkpt>
      <trkpt lat="46.82803" lon="-1.02302">
        <ele>118</ele>
        <time>2024-10-17T21:55:28.570Z</time>
      </trkpt>
      <trkpt lat="46.82807" lon="-1.02339">
        <ele>118</ele>
        <time>2024-10-17T21:55:32.900Z</time>
      </trkpt>
      <trkpt lat="46.82805" lon="-1.02371">
        <ele>118</ele>
        <time>2024-10-17T21:55:36.615Z</time>
      </trkpt>
      <trkpt lat="46.82802" lon="-1.02395">
        <ele>117.7</ele>
        <time>2024-10-17T21:55:39.015Z</time>
      </trkpt>
      <trkpt lat="46.82768" lon="-1.02581">
        <ele>116</ele>
        <time>2024-10-17T21:55:58.800Z</time>
      </trkpt>
      <trkpt lat="46.82745" lon="-1.02747">
        <ele>116</ele>
        <time>2024-10-17T21:56:18.379Z</time>
      </trkpt>
      <trkpt lat="46.82739" lon="-1.02817">
        <ele>116</ele>
        <time>2024-10-17T21:56:26.534Z</time>
      </trkpt>
      <trkpt lat="46.82738" lon="-1.0284">
        <ele>116</ele>
        <time>2024-10-17T21:56:29.199Z</time>
      </trkpt>
      <trkpt lat="46.8274" lon="-1.02863">
        <ele>116</ele>
        <time>2024-10-17T21:56:31.879Z</time>
      </trkpt>
      <trkpt lat="46.82766" lon="-1.0305">
        <ele>115.3</ele>
        <time>2024-10-17T21:56:52.860Z</time>
      </trkpt>
      <trkpt lat="46.82779" lon="-1.03181">
        <ele>113</ele>
        <time>2024-10-17T21:57:05.112Z</time>
      </trkpt>
      <trkpt lat="46.82778" lon="-1.032">
        <ele>113.2</ele>
        <time>2024-10-17T21:57:07.679Z</time>
      </trkpt>
      <trkpt lat="46.82767" lon="-1.03307">
        <ele>113</ele>
        <time>2024-10-17T21:57:19.873Z</time>
      </trkpt>
      <trkpt lat="46.82765" lon="-1.03406">
        <ele>111.7</ele>
        <time>2024-10-17T21:57:29.519Z</time>
      </trkpt>
      <trkpt lat="46.82768" lon="-1.0349">
        <ele>111</ele>
        <time>2024-10-17T21:57:38.220Z</time>
      </trkpt>
      <trkpt lat="46.82775" lon="-1.0353">
        <ele>111.1</ele>
        <time>2024-10-17T21:57:43.158Z</time>
      </trkpt>
      <trkpt lat="46.82832" lon="-1.03723">
        <ele>110</ele>
        <time>2024-10-17T21:58:05.794Z</time>
      </trkpt>
      <trkpt lat="46.82845" lon="-1.03752">
        <ele>109.6</ele>
        <time>2024-10-17T21:58:09.238Z</time>
      </trkpt>
      <trkpt lat="46.82898" lon="-1.03835">
        <ele>109.7</ele>
        <time>2024-10-17T21:58:22.524Z</time>
      </trkpt>
      <trkpt lat="46.82916" lon="-1.03871">
        <ele>109.6</ele>
        <time>2024-10-17T21:58:27.522Z</time>
      </trkpt>
      <trkpt lat="46.82929" lon="-1.03916">
        <ele>109</ele>
        <time>2024-10-17T21:58:32.328Z</time>
      </trkpt>
      <trkpt lat="46.82963" lon="-1.04061">
        <ele>108</ele>
        <time>2024-10-17T21:58:48.556Z</time>
      </trkpt>
      <trkpt lat="46.83001" lon="-1.04179">
        <ele>107</ele>
        <time>2024-10-17T21:59:02.160Z</time>
      </trkpt>
      <trkpt lat="46.8307" lon="-1.04357">
        <ele>105.6</ele>
        <time>2024-10-17T21:59:23.728Z</time>
      </trkpt>
      <trkpt lat="46.83144" lon="-1.0454">
        <ele>106</ele>
        <time>2024-10-17T21:59:48.957Z</time>
      </trkpt>
      <trkpt lat="46.83211" lon="-1.04747">
        <ele>107</ele>
        <time>2024-10-17T22:00:17.119Z</time>
      </trkpt>
      <trkpt lat="46.83315" lon="-1.05247">
        <ele>107</ele>
        <time>2024-10-17T22:01:17.525Z</time>
      </trkpt>
      <trkpt lat="46.8333" lon="-1.05324">
        <ele>106.9</ele>
        <time>2024-10-17T22:01:26.621Z</time>
      </trkpt>
      <trkpt lat="46.83339" lon="-1.05377">
        <ele>106.5</ele>
        <time>2024-10-17T22:01:32.342Z</time>
      </trkpt>
      <trkpt lat="46.83342" lon="-1.05421">
        <ele>106.9</ele>
        <time>2024-10-17T22:01:38.170Z</time>
      </trkpt>
      <trkpt lat="46.83342" lon="-1.05451">
        <ele>106.5</ele>
        <time>2024-10-17T22:01:41.084Z</time>
      </trkpt>
      <trkpt lat="46.83334" lon="-1.05593">
        <ele>106</ele>
        <time>2024-10-17T22:01:56.781Z</time>
      </trkpt>
      <trkpt lat="46.83337" lon="-1.05627">
        <ele>106.1</ele>
        <time>2024-10-17T22:02:00.910Z</time>
      </trkpt>
      <trkpt lat="46.83344" lon="-1.05667">
        <ele>106.4</ele>
        <time>2024-10-17T22:02:06.208Z</time>
      </trkpt>
      <trkpt lat="46.83365" lon="-1.05761">
        <ele>106.1</ele>
        <time>2024-10-17T22:02:17.173Z</time>
      </trkpt>
      <trkpt lat="46.83376" lon="-1.058">
        <ele>106.5</ele>
        <time>2024-10-17T22:02:22.770Z</time>
      </trkpt>
      <trkpt lat="46.83403" lon="-1.0587">
        <ele>106.5</ele>
        <time>2024-10-17T22:02:32.058Z</time>
      </trkpt>
      <trkpt lat="46.83415" lon="-1.05906">
        <ele>106.9</ele>
        <time>2024-10-17T22:02:37.412Z</time>
      </trkpt>
      <trkpt lat="46.83427" lon="-1.05972">
        <ele>106.4</ele>
        <time>2024-10-17T22:02:44.567Z</time>
      </trkpt>
      <trkpt lat="46.83435" lon="-1.06004">
        <ele>106.6</ele>
        <time>2024-10-17T22:02:48.849Z</time>
      </trkpt>
      <trkpt lat="46.83442" lon="-1.06024">
        <ele>106.1</ele>
        <time>2024-10-17T22:02:50.815Z</time>
      </trkpt>
      <trkpt lat="46.83451" lon="-1.06041">
        <ele>106</ele>
        <time>2024-10-17T22:02:53.147Z</time>
      </trkpt>
      <trkpt lat="46.83465" lon="-1.06059">
        <ele>106</ele>
        <time>2024-10-17T22:02:56.298Z</time>
      </trkpt>
      <trkpt lat="46.83612" lon="-1.06211">
        <ele>106</ele>
        <time>2024-10-17T22:03:26.720Z</time>
      </trkpt>
      <trkpt lat="46.83709" lon="-1.06315">
        <ele>106</ele>
        <time>2024-10-17T22:03:47.044Z</time>
      </trkpt>
      <trkpt lat="46.83723" lon="-1.06334">
        <ele>106</ele>
        <time>2024-10-17T22:03:50.272Z</time>
      </trkpt>
      <trkpt lat="46.83757" lon="-1.06396">
        <ele>106</ele>
        <time>2024-10-17T22:03:59.456Z</time>
      </trkpt>
      <trkpt lat="46.83771" lon="-1.06416">
        <ele>106</ele>
        <time>2024-10-17T22:04:02.763Z</time>
      </trkpt>
      <trkpt lat="46.83816" lon="-1.06516">
        <ele>106</ele>
        <time>2024-10-17T22:04:16.597Z</time>
      </trkpt>
      <trkpt lat="46.83865" lon="-1.06697">
        <ele>106</ele>
        <time>2024-10-17T22:04:39.095Z</time>
      </trkpt>
      <trkpt lat="46.83886" lon="-1.06762">
        <ele>106</ele>
        <time>2024-10-17T22:04:47.403Z</time>
      </trkpt>
      <trkpt lat="46.83906" lon="-1.06819">
        <ele>106</ele>
        <time>2024-10-17T22:04:54.807Z</time>
      </trkpt>
      <trkpt lat="46.83961" lon="-1.06953">
        <ele>107</ele>
        <time>2024-10-17T22:05:14.602Z</time>
      </trkpt>
      <trkpt lat="46.84014" lon="-1.07063">
        <ele>107</ele>
        <time>2024-10-17T22:05:30.152Z</time>
      </trkpt>
      <trkpt lat="46.84036" lon="-1.07102">
        <ele>107</ele>
        <time>2024-10-17T22:05:35.995Z</time>
      </trkpt>
      <trkpt lat="46.84065" lon="-1.07141">
        <ele>107.1</ele>
        <time>2024-10-17T22:05:42.816Z</time>
      </trkpt>
      <trkpt lat="46.84195" lon="-1.07339">
        <ele>107</ele>
        <time>2024-10-17T22:06:14.375Z</time>
      </trkpt>
      <trkpt lat="46.84286" lon="-1.07454">
        <ele>104.7</ele>
        <time>2024-10-17T22:06:31.506Z</time>
      </trkpt>
      <trkpt lat="46.84342" lon="-1.07539">
        <ele>103</ele>
        <time>2024-10-17T22:06:42.819Z</time>
      </trkpt>
      <trkpt lat="46.84375" lon="-1.07586">
        <ele>102.4</ele>
        <time>2024-10-17T22:06:49.732Z</time>
      </trkpt>
      <trkpt lat="46.84396" lon="-1.07609">
        <ele>101.3</ele>
        <time>2024-10-17T22:06:52.863Z</time>
      </trkpt>
      <trkpt lat="46.84392" lon="-1.0762">
        <ele>100.8</ele>
        <time>2024-10-17T22:06:53.771Z</time>
      </trkpt>
      <trkpt lat="46.84449" lon="-1.07726">
        <ele>101</ele>
        <time>2024-10-17T22:07:09.680Z</time>
      </trkpt>
      <trkpt lat="46.8446" lon="-1.07751">
        <ele>101</ele>
        <time>2024-10-17T22:07:13.115Z</time>
      </trkpt>
      <trkpt lat="46.84487" lon="-1.07819">
        <ele>100.7</ele>
        <time>2024-10-17T22:07:21.740Z</time>
      </trkpt>
      <trkpt lat="46.84499" lon="-1.07846">
        <ele>101</ele>
        <time>2024-10-17T22:07:26.000Z</time>
      </trkpt>
      <trkpt lat="46.84646" lon="-1.08141">
        <ele>99.9</ele>
        <time>2024-10-17T22:08:06.472Z</time>
      </trkpt>
      <trkpt lat="46.84674" lon="-1.08184">
        <ele>99.3</ele>
        <time>2024-10-17T22:08:12.473Z</time>
      </trkpt>
      <trkpt lat="46.84699" lon="-1.08218">
        <ele>98.8</ele>
        <time>2024-10-17T22:08:17.525Z</time>
      </trkpt>
      <trkpt lat="46.84818" lon="-1.08356">
        <ele>97</ele>
        <time>2024-10-17T22:08:40.550Z</time>
      </trkpt>
      <trkpt lat="46.84894" lon="-1.0845">
        <ele>96</ele>
        <time>2024-10-17T22:08:55.884Z</time>
      </trkpt>
      <trkpt lat="46.84915" lon="-1.0848">
        <ele>95.7</ele>
        <time>2024-10-17T22:09:00.399Z</time>
      </trkpt>
      <trkpt lat="46.8492" lon="-1.08494">
        <ele>95.2</ele>
        <time>2024-10-17T22:09:01.649Z</time>
      </trkpt>
      <trkpt lat="46.84925" lon="-1.08513">
        <ele>95</ele>
        <time>2024-10-17T22:09:03.714Z</time>
      </trkpt>
      <trkpt lat="46.8494" lon="-1.08638">
        <ele>91.2</ele>
        <time>2024-10-17T22:09:13.935Z</time>
      </trkpt>
      <trkpt lat="46.84941" lon="-1.08655">
        <ele>90.5</ele>
        <time>2024-10-17T22:09:15.168Z</time>
      </trkpt>
      <trkpt lat="46.84939" lon="-1.08669">
        <ele>89.9</ele>
        <time>2024-10-17T22:09:16.192Z</time>
      </trkpt>
      <trkpt lat="46.84935" lon="-1.08678">
        <ele>89.6</ele>
        <time>2024-10-17T22:09:17.075Z</time>
      </trkpt>
      <trkpt lat="46.84929" lon="-1.08684">
        <ele>89.4</ele>
        <time>2024-10-17T22:09:18.042Z</time>
      </trkpt>
      <trkpt lat="46.8492" lon="-1.08688">
        <ele>89.2</ele>
        <time>2024-10-17T22:09:19.358Z</time>
      </trkpt>
      <trkpt lat="46.8488" lon="-1.08694">
        <ele>88</ele>
        <time>2024-10-17T22:09:24.610Z</time>
      </trkpt>
      <trkpt lat="46.84869" lon="-1.08698">
        <ele>87.7</ele>
        <time>2024-10-17T22:09:26.130Z</time>
      </trkpt>
      <trkpt lat="46.84861" lon="-1.08704">
        <ele>87.3</ele>
        <time>2024-10-17T22:09:27.183Z</time>
      </trkpt>
      <trkpt lat="46.84847" lon="-1.08723">
        <ele>85.5</ele>
        <time>2024-10-17T22:09:29.120Z</time>
      </trkpt>
      <trkpt lat="46.84842" lon="-1.08739">
        <ele>84.5</ele>
        <time>2024-10-17T22:09:30.339Z</time>
      </trkpt>
      <trkpt lat="46.84836" lon="-1.08769">
        <ele>83.3</ele>
        <time>2024-10-17T22:09:32.654Z</time>
      </trkpt>
      <trkpt lat="46.84831" lon="-1.08807">
        <ele>83</ele>
        <time>2024-10-17T22:09:36.685Z</time>
      </trkpt>
      <trkpt lat="46.84835" lon="-1.08833">
        <ele>83</ele>
        <time>2024-10-17T22:09:39.764Z</time>
      </trkpt>
      <trkpt lat="46.84838" lon="-1.08842">
        <ele>83.1</ele>
        <time>2024-10-17T22:09:41.103Z</time>
      </trkpt>
      <trkpt lat="46.84945" lon="-1.08976">
        <ele>91.3</ele>
        <time>2024-10-17T22:10:27.284Z</time>
      </trkpt>
      <trkpt lat="46.84979" lon="-1.09005">
        <ele>92.9</ele>
        <time>2024-10-17T22:10:37.610Z</time>
      </trkpt>
      <trkpt lat="46.84991" lon="-1.0902">
        <ele>93</ele>
        <time>2024-10-17T22:10:40.446Z</time>
      </trkpt>
      <trkpt lat="46.85034" lon="-1.09078">
        <ele>93.4</ele>
        <time>2024-10-17T22:10:51.010Z</time>
      </trkpt>
      <trkpt lat="46.85082" lon="-1.09135">
        <ele>93.7</ele>
        <time>2024-10-17T22:11:01.959Z</time>
      </trkpt>
      <trkpt lat="46.85102" lon="-1.09166">
        <ele>94.3</ele>
        <time>2024-10-17T22:11:08.029Z</time>
      </trkpt>
      <trkpt lat="46.85141" lon="-1.09235">
        <ele>95.4</ele>
        <time>2024-10-17T22:11:20.426Z</time>
      </trkpt>
      <trkpt lat="46.85148" lon="-1.09245">
        <ele>95.6</ele>
        <time>2024-10-17T22:11:22.461Z</time>
      </trkpt>
      <trkpt lat="46.85164" lon="-1.09261">
        <ele>95.5</ele>
        <time>2024-10-17T22:11:25.582Z</time>
      </trkpt>
      <trkpt lat="46.85185" lon="-1.09277">
        <ele>96.6</ele>
        <time>2024-10-17T22:11:32.255Z</time>
      </trkpt>
      <trkpt lat="46.85222" lon="-1.09298">
        <ele>97.7</ele>
        <time>2024-10-17T22:11:41.201Z</time>
      </trkpt>
      <trkpt lat="46.85265" lon="-1.09306">
        <ele>98.6</ele>
        <time>2024-10-17T22:11:50.246Z</time>
      </trkpt>
      <trkpt lat="46.85293" lon="-1.09335">
        <ele>100</ele>
        <time>2024-10-17T22:11:59.264Z</time>
      </trkpt>
      <trkpt lat="46.85301" lon="-1.09346">
        <ele>100.1</ele>
        <time>2024-10-17T22:12:01.293Z</time>
      </trkpt>
      <trkpt lat="46.85312" lon="-1.09351">
        <ele>99.9</ele>
        <time>2024-10-17T22:12:02.958Z</time>
      </trkpt>
      <trkpt lat="46.85485" lon="-1.09391">
        <ele>92.5</ele>
        <time>2024-10-17T22:12:23.809Z</time>
      </trkpt>
      <trkpt lat="46.855" lon="-1.09399">
        <ele>92.4</ele>
        <time>2024-10-17T22:12:26.354Z</time>
      </trkpt>
      <trkpt lat="46.85506" lon="-1.09406">
        <ele>92.4</ele>
        <time>2024-10-17T22:12:27.650Z</time>
      </trkpt>
      <trkpt lat="46.85513" lon="-1.0942">
        <ele>92.7</ele>
        <time>2024-10-17T22:12:30.252Z</time>
      </trkpt>
      <trkpt lat="46.85541" lon="-1.09501">
        <ele>94.6</ele>
        <time>2024-10-17T22:12:44.711Z</time>
      </trkpt>
      <trkpt lat="46.85553" lon="-1.09521">
        <ele>94.8</ele>
        <time>2024-10-17T22:12:48.136Z</time>
      </trkpt>
      <trkpt lat="46.85602" lon="-1.0958">
        <ele>93.6</ele>
        <time>2024-10-17T22:12:57.193Z</time>
      </trkpt>
      <trkpt lat="46.85633" lon="-1.09625">
        <ele>93.5</ele>
        <time>2024-10-17T22:13:04.415Z</time>
      </trkpt>
      <trkpt lat="46.85695" lon="-1.09707">
        <ele>97</ele>
        <time>2024-10-17T22:13:26.674Z</time>
      </trkpt>
      <trkpt lat="46.85756" lon="-1.09778">
        <ele>97.8</ele>
        <time>2024-10-17T22:13:41.245Z</time>
      </trkpt>
      <trkpt lat="46.85848" lon="-1.09915">
        <ele>93.9</ele>
        <time>2024-10-17T22:13:58.412Z</time>
      </trkpt>
      <trkpt lat="46.85864" lon="-1.09953">
        <ele>93.9</ele>
        <time>2024-10-17T22:14:03.568Z</time>
      </trkpt>
      <trkpt lat="46.85879" lon="-1.10002">
        <ele>93.7</ele>
        <time>2024-10-17T22:14:09.462Z</time>
      </trkpt>
      <trkpt lat="46.85887" lon="-1.10017">
        <ele>93.1</ele>
        <time>2024-10-17T22:14:10.969Z</time>
      </trkpt>
      <trkpt lat="46.85827" lon="-1.1011">
        <ele>94.3</ele>
        <time>2024-10-17T22:14:27.901Z</time>
      </trkpt>
      <trkpt lat="46.85822" lon="-1.10114">
        <ele>94.4</ele>
        <time>2024-10-17T22:14:29.050Z</time>
      </trkpt>
      <trkpt lat="46.85717" lon="-1.10177">
        <ele>95.7</ele>
        <time>2024-10-17T22:14:50.520Z</time>
      </trkpt>
      <trkpt lat="46.85687" lon="-1.10192">
        <ele>96</ele>
        <time>2024-10-17T22:14:56.398Z</time>
      </trkpt>
      <trkpt lat="46.8565" lon="-1.10211">
        <ele>96.8</ele>
        <time>2024-10-17T22:15:04.549Z</time>
      </trkpt>
      <trkpt lat="46.85532" lon="-1.10256">
        <ele>98</ele>
        <time>2024-10-17T22:15:27.242Z</time>
      </trkpt>
      <trkpt lat="46.85489" lon="-1.10269">
        <ele>99.5</ele>
        <time>2024-10-17T22:15:37.902Z</time>
      </trkpt>
      <trkpt lat="46.85441" lon="-1.10275">
        <ele>101.4</ele>
        <time>2024-10-17T22:15:50.356Z</time>
      </trkpt>
      <trkpt lat="46.84954" lon="-1.1031">
        <ele>103.9</ele>
        <time>2024-10-17T22:17:16.924Z</time>
      </trkpt>
      <trkpt lat="46.84925" lon="-1.10319">
        <ele>103.2</ele>
        <time>2024-10-17T22:17:20.992Z</time>
      </trkpt>
      <trkpt lat="46.84762" lon="-1.10391">
        <ele>98</ele>
        <time>2024-10-17T22:17:43.111Z</time>
      </trkpt>
      <trkpt lat="46.84648" lon="-1.10428">
        <ele>96.2</ele>
        <time>2024-10-17T22:18:00.274Z</time>
      </trkpt>
      <trkpt lat="46.84525" lon="-1.10465">
        <ele>96.3</ele>
        <time>2024-10-17T22:18:21.652Z</time>
      </trkpt>
      <trkpt lat="46.84495" lon="-1.10479">
        <ele>97</ele>
        <time>2024-10-17T22:18:28.330Z</time>
      </trkpt>
      <trkpt lat="46.84472" lon="-1.10493">
        <ele>97.8</ele>
        <time>2024-10-17T22:18:34.235Z</time>
      </trkpt>
      <trkpt lat="46.84345" lon="-1.106">
        <ele>98.7</ele>
        <time>2024-10-17T22:19:00.520Z</time>
      </trkpt>
      <trkpt lat="46.8416" lon="-1.10762">
        <ele>101</ele>
        <time>2024-10-17T22:19:40.988Z</time>
      </trkpt>
      <trkpt lat="46.83969" lon="-1.10928">
        <ele>95.6</ele>
        <time>2024-10-17T22:20:11.314Z</time>
      </trkpt>
      <trkpt lat="46.83944" lon="-1.10953">
        <ele>95</ele>
        <time>2024-10-17T22:20:15.603Z</time>
      </trkpt>
      <trkpt lat="46.83569" lon="-1.11418">
        <ele>97.5</ele>
        <time>2024-10-17T22:21:42.871Z</time>
      </trkpt>
      <trkpt lat="46.83545" lon="-1.11455">
        <ele>98.4</ele>
        <time>2024-10-17T22:21:50.565Z</time>
      </trkpt>
      <trkpt lat="46.83372" lon="-1.11855">
        <ele>100.1</ele>
        <time>2024-10-17T22:22:48.113Z</time>
      </trkpt>
      <trkpt lat="46.8335" lon="-1.11901">
        <ele>100</ele>
        <time>2024-10-17T22:22:54.443Z</time>
      </trkpt>
      <trkpt lat="46.83331" lon="-1.11931">
        <ele>100</ele>
        <time>2024-10-17T22:22:59.169Z</time>
      </trkpt>
      <trkpt lat="46.83312" lon="-1.11959">
        <ele>99.9</ele>
        <time>2024-10-17T22:23:03.571Z</time>
      </trkpt>
      <trkpt lat="46.83291" lon="-1.11983">
        <ele>99.6</ele>
        <time>2024-10-17T22:23:07.633Z</time>
      </trkpt>
      <trkpt lat="46.83257" lon="-1.12012">
        <ele>99.3</ele>
        <time>2024-10-17T22:23:13.831Z</time>
      </trkpt>
      <trkpt lat="46.83204" lon="-1.12047">
        <ele>98.3</ele>
        <time>2024-10-17T22:23:22.249Z</time>
      </trkpt>
      <trkpt lat="46.83152" lon="-1.12088">
        <ele>97.8</ele>
        <time>2024-10-17T22:23:31.480Z</time>
      </trkpt>
      <trkpt lat="46.82934" lon="-1.12306">
        <ele>89.6</ele>
        <time>2024-10-17T22:24:05.657Z</time>
      </trkpt>
      <trkpt lat="46.82835" lon="-1.12401">
        <ele>85</ele>
        <time>2024-10-17T22:24:20.108Z</time>
      </trkpt>
      <trkpt lat="46.82726" lon="-1.12467">
        <ele>84</ele>
        <time>2024-10-17T22:24:38.539Z</time>
      </trkpt>
      <trkpt lat="46.82713" lon="-1.12474">
        <ele>84.3</ele>
        <time>2024-10-17T22:24:41.458Z</time>
      </trkpt>
      <trkpt lat="46.82701" lon="-1.12476">
        <ele>84.8</ele>
        <time>2024-10-17T22:24:44.656Z</time>
      </trkpt>
      <trkpt lat="46.82691" lon="-1.12474">
        <ele>85</ele>
        <time>2024-10-17T22:24:46.740Z</time>
      </trkpt>
      <trkpt lat="46.82684" lon="-1.12469">
        <ele>85</ele>
        <time>2024-10-17T22:24:48.057Z</time>
      </trkpt>
      <trkpt lat="46.82675" lon="-1.12488">
        <ele>85</ele>
        <time>2024-10-17T22:24:50.728Z</time>
      </trkpt>
      <trkpt lat="46.82657" lon="-1.125">
        <ele>85.3</ele>
        <time>2024-10-17T22:24:54.617Z</time>
      </trkpt>
      <trkpt lat="46.82669" lon="-1.12532">
        <ele>84.8</ele>
        <time>2024-10-17T22:24:58.147Z</time>
      </trkpt>
      <trkpt lat="46.82697" lon="-1.12641">
        <ele>83.8</ele>
        <time>2024-10-17T22:25:10.149Z</time>
      </trkpt>
      <trkpt lat="46.82702" lon="-1.12654">
        <ele>83.3</ele>
        <time>2024-10-17T22:25:11.308Z</time>
      </trkpt>
      <trkpt lat="46.8271" lon="-1.12663">
        <ele>83.1</ele>
        <time>2024-10-17T22:25:12.737Z</time>
      </trkpt>
      <trkpt lat="46.82722" lon="-1.12669">
        <ele>83</ele>
        <time>2024-10-17T22:25:14.729Z</time>
      </trkpt>
      <trkpt lat="46.82745" lon="-1.12691">
        <ele>83.7</ele>
        <time>2024-10-17T22:25:20.770Z</time>
      </trkpt>
      <trkpt lat="46.82778" lon="-1.12741">
        <ele>84.7</ele>
        <time>2024-10-17T22:25:30.718Z</time>
      </trkpt>
      <trkpt lat="46.82821" lon="-1.12814">
        <ele>86</ele>
        <time>2024-10-17T22:25:44.318Z</time>
      </trkpt>
      <trkpt lat="46.8284" lon="-1.12865">
        <ele>86</ele>
        <time>2024-10-17T22:25:51.031Z</time>
      </trkpt>
      <trkpt lat="46.82848" lon="-1.12901">
        <ele>86.7</ele>
        <time>2024-10-17T22:25:56.823Z</time>
      </trkpt>
      <trkpt lat="46.82836" lon="-1.12961">
        <ele>88</ele>
        <time>2024-10-17T22:26:06.761Z</time>
      </trkpt>
      <trkpt lat="46.82815" lon="-1.13031">
        <ele>88.7</ele>
        <time>2024-10-17T22:26:16.853Z</time>
      </trkpt>
      <trkpt lat="46.82814" lon="-1.13053">
        <ele>88.7</ele>
        <time>2024-10-17T22:26:19.402Z</time>
      </trkpt>
      <trkpt lat="46.82826" lon="-1.13069">
        <ele>88.6</ele>
        <time>2024-10-17T22:26:21.993Z</time>
      </trkpt>
      <trkpt lat="46.82864" lon="-1.13096">
        <ele>89</ele>
        <time>2024-10-17T22:26:29.826Z</time>
      </trkpt>
      <trkpt lat="46.82906" lon="-1.1312">
        <ele>88.6</ele>
        <time>2024-10-17T22:26:36.846Z</time>
      </trkpt>
      <trkpt lat="46.82921" lon="-1.13135">
        <ele>88.7</ele>
        <time>2024-10-17T22:26:40.085Z</time>
      </trkpt>
      <trkpt lat="46.8293" lon="-1.13151">
        <ele>88.5</ele>
        <time>2024-10-17T22:26:42.191Z</time>
      </trkpt>
      <trkpt lat="46.82933" lon="-1.13185">
        <ele>88.1</ele>
        <time>2024-10-17T22:26:45.590Z</time>
      </trkpt>
      <trkpt lat="46.82932" lon="-1.13247">
        <ele>87</ele>
        <time>2024-10-17T22:26:51.306Z</time>
      </trkpt>
      <trkpt lat="46.82927" lon="-1.1332">
        <ele>85.8</ele>
        <time>2024-10-17T22:26:58.178Z</time>
      </trkpt>
      <trkpt lat="46.82929" lon="-1.13357">
        <ele>84.7</ele>
        <time>2024-10-17T22:27:01.178Z</time>
      </trkpt>
      <trkpt lat="46.82948" lon="-1.13437">
        <ele>83.9</ele>
        <time>2024-10-17T22:27:09.813Z</time>
      </trkpt>
      <trkpt lat="46.82963" lon="-1.13479">
        <ele>83.3</ele>
        <time>2024-10-17T22:27:14.453Z</time>
      </trkpt>
      <trkpt lat="46.82982" lon="-1.13484">
        <ele>82.8</ele>
        <time>2024-10-17T22:27:17.054Z</time>
      </trkpt>
      <trkpt lat="46.83038" lon="-1.13483">
        <ele>81.8</ele>
        <time>2024-10-17T22:27:25.116Z</time>
      </trkpt>
      <trkpt lat="46.83078" lon="-1.13486">
        <ele>81.1</ele>
        <time>2024-10-17T22:27:30.900Z</time>
      </trkpt>
      <trkpt lat="46.83131" lon="-1.13515">
        <ele>81</ele>
        <time>2024-10-17T22:27:40.303Z</time>
      </trkpt>
      <trkpt lat="46.83259" lon="-1.13601">
        <ele>79</ele>
        <time>2024-10-17T22:28:01.226Z</time>
      </trkpt>
      <trkpt lat="46.83333" lon="-1.13653">
        <ele>79.5</ele>
        <time>2024-10-17T22:28:15.943Z</time>
      </trkpt>
      <trkpt lat="46.83389" lon="-1.13699">
        <ele>79</ele>
        <time>2024-10-17T22:28:26.040Z</time>
      </trkpt>
      <trkpt lat="46.83474" lon="-1.1371">
        <ele>78.1</ele>
        <time>2024-10-17T22:28:39.126Z</time>
      </trkpt>
      <trkpt lat="46.83581" lon="-1.13709">
        <ele>78</ele>
        <time>2024-10-17T22:28:57.046Z</time>
      </trkpt>
      <trkpt lat="46.83629" lon="-1.13758">
        <ele>79.7</ele>
        <time>2024-10-17T22:29:10.441Z</time>
      </trkpt>
      <trkpt lat="46.83683" lon="-1.13831">
        <ele>81.9</ele>
        <time>2024-10-17T22:29:27.437Z</time>
      </trkpt>
      <trkpt lat="46.83747" lon="-1.1398">
        <ele>82.1</ele>
        <time>2024-10-17T22:29:48.098Z</time>
      </trkpt>
      <trkpt lat="46.83758" lon="-1.14014">
        <ele>81.7</ele>
        <time>2024-10-17T22:29:51.875Z</time>
      </trkpt>
      <trkpt lat="46.8376" lon="-1.14074">
        <ele>81</ele>
        <time>2024-10-17T22:29:57.831Z</time>
      </trkpt>
      <trkpt lat="46.83771" lon="-1.14126">
        <ele>80.5</ele>
        <time>2024-10-17T22:30:03.398Z</time>
      </trkpt>
      <trkpt lat="46.83785" lon="-1.14202">
        <ele>79.9</ele>
        <time>2024-10-17T22:30:11.612Z</time>
      </trkpt>
      <trkpt lat="46.83791" lon="-1.14333">
        <ele>74.5</ele>
        <time>2024-10-17T22:30:21.093Z</time>
      </trkpt>
      <trkpt lat="46.838" lon="-1.14406">
        <ele>73.7</ele>
        <time>2024-10-17T22:30:28.528Z</time>
      </trkpt>
      <trkpt lat="46.83877" lon="-1.14732">
        <ele>76.1</ele>
        <time>2024-10-17T22:31:12.580Z</time>
      </trkpt>
      <trkpt lat="46.83885" lon="-1.14781">
        <ele>76.9</ele>
        <time>2024-10-17T22:31:19.966Z</time>
      </trkpt>
      <trkpt lat="46.83892" lon="-1.1485">
        <ele>78.6</ele>
        <time>2024-10-17T22:31:31.752Z</time>
      </trkpt>
      <trkpt lat="46.83901" lon="-1.14901">
        <ele>79.4</ele>
        <time>2024-10-17T22:31:39.390Z</time>
      </trkpt>
      <trkpt lat="46.83906" lon="-1.14923">
        <ele>79.6</ele>
        <time>2024-10-17T22:31:42.425Z</time>
      </trkpt>
      <trkpt lat="46.83916" lon="-1.14954">
        <ele>79.6</ele>
        <time>2024-10-17T22:31:46.387Z</time>
      </trkpt>
      <trkpt lat="46.83931" lon="-1.1498">
        <ele>78.7</ele>
        <time>2024-10-17T22:31:49.229Z</time>
      </trkpt>
      <trkpt lat="46.8395" lon="-1.15">
        <ele>77.8</ele>
        <time>2024-10-17T22:31:52.094Z</time>
      </trkpt>
      <trkpt lat="46.84004" lon="-1.15039">
        <ele>75.7</ele>
        <time>2024-10-17T22:31:59.664Z</time>
      </trkpt>
      <trkpt lat="46.84026" lon="-1.1506">
        <ele>76.9</ele>
        <time>2024-10-17T22:32:06.996Z</time>
      </trkpt>
      <trkpt lat="46.84106" lon="-1.15162">
        <ele>81.2</ele>
        <time>2024-10-17T22:32:34.796Z</time>
      </trkpt>
      <trkpt lat="46.84163" lon="-1.15225">
        <ele>81.2</ele>
        <time>2024-10-17T22:32:46.869Z</time>
      </trkpt>
      <trkpt lat="46.84178" lon="-1.15238">
        <ele>80.4</ele>
        <time>2024-10-17T22:32:48.893Z</time>
      </trkpt>
      <trkpt lat="46.84195" lon="-1.15243">
        <ele>80.8</ele>
        <time>2024-10-17T22:32:52.603Z</time>
      </trkpt>
      <trkpt lat="46.84211" lon="-1.1524">
        <ele>80.9</ele>
        <time>2024-10-17T22:32:55.498Z</time>
      </trkpt>
      <trkpt lat="46.84253" lon="-1.15223">
        <ele>81.1</ele>
        <time>2024-10-17T22:33:03.194Z</time>
      </trkpt>
      <trkpt lat="46.84274" lon="-1.15223">
        <ele>81.9</ele>
        <time>2024-10-17T22:33:08.536Z</time>
      </trkpt>
      <trkpt lat="46.84283" lon="-1.15226">
        <ele>82.2</ele>
        <time>2024-10-17T22:33:10.734Z</time>
      </trkpt>
      <trkpt lat="46.84304" lon="-1.15238">
        <ele>82.9</ele>
        <time>2024-10-17T22:33:16.013Z</time>
      </trkpt>
      <trkpt lat="46.84314" lon="-1.15249">
        <ele>83.3</ele>
        <time>2024-10-17T22:33:18.974Z</time>
      </trkpt>
      <trkpt lat="46.84323" lon="-1.15261">
        <ele>83.6</ele>
        <time>2024-10-17T22:33:21.626Z</time>
      </trkpt>
      <trkpt lat="46.8434" lon="-1.15294">
        <ele>84.1</ele>
        <time>2024-10-17T22:33:27.331Z</time>
      </trkpt>
      <trkpt lat="46.84432" lon="-1.15495">
        <ele>82.1</ele>
        <time>2024-10-17T22:33:52.357Z</time>
      </trkpt>
      <trkpt lat="46.84488" lon="-1.15612">
        <ele>80.6</ele>
        <time>2024-10-17T22:34:06.719Z</time>
      </trkpt>
      <trkpt lat="46.84524" lon="-1.15696">
        <ele>83.9</ele>
        <time>2024-10-17T22:34:26.368Z</time>
      </trkpt>
      <trkpt lat="46.84562" lon="-1.15796">
        <ele>85.9</ele>
        <time>2024-10-17T22:34:43.581Z</time>
      </trkpt>
      <trkpt lat="46.846" lon="-1.15904">
        <ele>88.5</ele>
        <time>2024-10-17T22:35:03.087Z</time>
      </trkpt>
      <trkpt lat="46.84624" lon="-1.15981">
        <ele>89.3</ele>
        <time>2024-10-17T22:35:14.306Z</time>
      </trkpt>
      <trkpt lat="46.84635" lon="-1.16025">
        <ele>89.9</ele>
        <time>2024-10-17T22:35:20.847Z</time>
      </trkpt>
      <trkpt lat="46.84671" lon="-1.16275">
        <ele>88.7</ele>
        <time>2024-10-17T22:35:48.544Z</time>
      </trkpt>
      <trkpt lat="46.84692" lon="-1.16399">
        <ele>86.6</ele>
        <time>2024-10-17T22:36:00.494Z</time>
      </trkpt>
      <trkpt lat="46.84788" lon="-1.16719">
        <ele>78.4</ele>
        <time>2024-10-17T22:36:30.655Z</time>
      </trkpt>
      <trkpt lat="46.84854" lon="-1.16953">
        <ele>81</ele>
        <time>2024-10-17T22:37:04.635Z</time>
      </trkpt>
      <trkpt lat="46.84861" lon="-1.16948">
        <ele>81</ele>
      </trkpt>
      <trkpt lat="46.84878" lon="-1.16908">
        <ele>81.6</ele>
      </trkpt>
      <trkpt lat="46.84911" lon="-1.16833">
        <ele>82.8</ele>
      </trkpt>
      <trkpt lat="46.84926" lon="-1.16802">
        <ele>82.3</ele>
      </trkpt>
      <trkpt lat="46.84932" lon="-1.168">
        <ele>82.6</ele>
      </trkpt>
      <trkpt lat="46.84943" lon="-1.16798">
        <ele>82.9</ele>
      </trkpt>
      <trkpt lat="46.84958" lon="-1.16809">
        <ele>83.4</ele>
      </trkpt>
      <trkpt lat="46.85012" lon="-1.16881">
        <ele>84</ele>
      </trkpt>
      <trkpt lat="46.85034" lon="-1.16913">
        <ele>84</ele>
      </trkpt>
      <trkpt lat="46.85045" lon="-1.16925">
        <ele>83.7</ele>
      </trkpt>
      <trkpt lat="46.85063" lon="-1.16936">
        <ele>83.3</ele>
      </trkpt>
      <trkpt lat="46.85084" lon="-1.16951">
        <ele>82.8</ele>
      </trkpt>
      <trkpt lat="46.85084" lon="-1.16958">
        <ele>82.5</ele>
      </trkpt>
      <trkpt lat="46.85068" lon="-1.16994">
        <ele>82.1</ele>
      </trkpt>
      <trkpt lat="46.85043" lon="-1.17082">
        <ele>80</ele>
      </trkpt>
      <trkpt lat="46.8501" lon="-1.17211">
        <ele>76.8</ele>
      </trkpt>
      <trkpt lat="46.85006" lon="-1.17234">
        <ele>76.1</ele>
      </trkpt>
      <trkpt lat="46.84999" lon="-1.17289">
        <ele>75</ele>
        <time>2024-10-17T22:38:05.641Z</time>
      </trkpt>
      <trkpt lat="46.84999" lon="-1.17299">
        <ele>75</ele>
        <time>2024-10-17T22:38:06.273Z</time>
      </trkpt>
      <trkpt lat="46.84998" lon="-1.17304">
        <ele>75.1</ele>
        <time>2024-10-17T22:38:07.080Z</time>
      </trkpt>
      <trkpt lat="46.85023" lon="-1.17376">
        <ele>74.6</ele>
        <time>2024-10-17T22:38:15.662Z</time>
      </trkpt>
      <trkpt lat="46.8503" lon="-1.17415">
        <ele>74</ele>
        <time>2024-10-17T22:38:19.504Z</time>
      </trkpt>
      <trkpt lat="46.85033" lon="-1.1745">
        <ele>74</ele>
        <time>2024-10-17T22:38:23.580Z</time>
      </trkpt>
      <trkpt lat="46.85029" lon="-1.1748">
        <ele>74.1</ele>
        <time>2024-10-17T22:38:27.279Z</time>
      </trkpt>
      <trkpt lat="46.85036" lon="-1.17525">
        <ele>75.2</ele>
        <time>2024-10-17T22:38:35.004Z</time>
      </trkpt>
      <trkpt lat="46.85041" lon="-1.17546">
        <ele>75.1</ele>
        <time>2024-10-17T22:38:37.420Z</time>
      </trkpt>
      <trkpt lat="46.85056" lon="-1.17598">
        <ele>75</ele>
        <time>2024-10-17T22:38:43.784Z</time>
      </trkpt>
      <trkpt lat="46.85058" lon="-1.17612">
        <ele>75.1</ele>
        <time>2024-10-17T22:38:45.612Z</time>
      </trkpt>
      <trkpt lat="46.85113" lon="-1.17601">
        <ele>77</ele>
        <time>2024-10-17T22:38:59.098Z</time>
      </trkpt>
      <trkpt lat="46.85143" lon="-1.17613">
        <ele>77.2</ele>
        <time>2024-10-17T22:39:04.692Z</time>
      </trkpt>
      <trkpt lat="46.85208" lon="-1.17654">
        <ele>79.5</ele>
        <time>2024-10-17T22:39:21.545Z</time>
      </trkpt>
      <trkpt lat="46.85225" lon="-1.17669">
        <ele>80.2</ele>
        <time>2024-10-17T22:39:26.428Z</time>
      </trkpt>
      <trkpt lat="46.85227" lon="-1.17667">
        <ele>80.2</ele>
        <time>2024-10-17T22:39:26.837Z</time>
      </trkpt>
      <trkpt lat="46.85233" lon="-1.17667">
        <ele>80.4</ele>
        <time>2024-10-17T22:39:28.280Z</time>
      </trkpt>
      <trkpt lat="46.85235" lon="-1.1767">
        <ele>80.6</ele>
        <time>2024-10-17T22:39:29.377Z</time>
      </trkpt>
      <trkpt lat="46.8524" lon="-1.17663">
        <ele>80.6</ele>
        <time>2024-10-17T22:39:30.546Z</time>
      </trkpt>
      <trkpt lat="46.85376" lon="-1.17602">
        <ele>82</ele>
        <time>2024-10-17T22:39:57.019Z</time>
      </trkpt>
      <trkpt lat="46.85424" lon="-1.17575">
        <ele>82.2</ele>
        <time>2024-10-17T22:40:06.040Z</time>
      </trkpt>
      <trkpt lat="46.85467" lon="-1.17556">
        <ele>82.8</ele>
        <time>2024-10-17T22:40:14.706Z</time>
      </trkpt>
      <trkpt lat="46.85496" lon="-1.17547">
        <ele>83.9</ele>
        <time>2024-10-17T22:40:22.158Z</time>
      </trkpt>
      <trkpt lat="46.85574" lon="-1.17534">
        <ele>86.1</ele>
        <time>2024-10-17T22:40:39.914Z</time>
      </trkpt>
      <trkpt lat="46.85619" lon="-1.17522">
        <ele>88.3</ele>
        <time>2024-10-17T22:40:53.074Z</time>
      </trkpt>
      <trkpt lat="46.85661" lon="-1.17505">
        <ele>89.8</ele>
        <time>2024-10-17T22:41:03.686Z</time>
      </trkpt>
      <trkpt lat="46.85679" lon="-1.17496">
        <ele>90.4</ele>
        <time>2024-10-17T22:41:08.165Z</time>
      </trkpt>
      <trkpt lat="46.8575" lon="-1.17452">
        <ele>92.7</ele>
        <time>2024-10-17T22:41:25.968Z</time>
      </trkpt>
      <trkpt lat="46.85788" lon="-1.17426">
        <ele>94.4</ele>
        <time>2024-10-17T22:41:36.957Z</time>
      </trkpt>
      <trkpt lat="46.85844" lon="-1.17376">
        <ele>94.7</ele>
        <time>2024-10-17T22:41:48.542Z</time>
      </trkpt>
      <trkpt lat="46.85842" lon="-1.17369">
        <ele>94.5</ele>
        <time>2024-10-17T22:41:49.177Z</time>
      </trkpt>
      <trkpt lat="46.85843" lon="-1.17356">
        <ele>94.3</ele>
        <time>2024-10-17T22:41:50.417Z</time>
      </trkpt>
      <trkpt lat="46.85845" lon="-1.1735">
        <ele>94.3</ele>
        <time>2024-10-17T22:41:51.188Z</time>
      </trkpt>
      <trkpt lat="46.85851" lon="-1.17344">
        <ele>94.2</ele>
        <time>2024-10-17T22:41:52.272Z</time>
      </trkpt>
      <trkpt lat="46.85861" lon="-1.17341">
        <ele>94.3</ele>
        <time>2024-10-17T22:41:54.171Z</time>
      </trkpt>
      <trkpt lat="46.85866" lon="-1.17344">
        <ele>94.3</ele>
        <time>2024-10-17T22:41:55.084Z</time>
      </trkpt>
      <trkpt lat="46.85871" lon="-1.1735">
        <ele>94.4</ele>
        <time>2024-10-17T22:41:56.359Z</time>
      </trkpt>
      <trkpt lat="46.85884" lon="-1.17336">
        <ele>94</ele>
        <time>2024-10-17T22:41:58.554Z</time>
      </trkpt>
      <trkpt lat="46.85915" lon="-1.17282">
        <ele>92.2</ele>
        <time>2024-10-17T22:42:04.503Z</time>
      </trkpt>
      <trkpt lat="46.8604" lon="-1.17048">
        <ele>85.8</ele>
        <time>2024-10-17T22:42:30.679Z</time>
      </trkpt>
      <trkpt lat="46.86067" lon="-1.17006">
        <ele>86.2</ele>
        <time>2024-10-17T22:42:38.037Z</time>
      </trkpt>
      <trkpt lat="46.86242" lon="-1.16814">
        <ele>91.9</ele>
        <time>2024-10-17T22:43:26.431Z</time>
      </trkpt>
      <trkpt lat="46.86276" lon="-1.16783">
        <ele>93</ele>
        <time>2024-10-17T22:43:35.435Z</time>
      </trkpt>
      <trkpt lat="46.86358" lon="-1.1673">
        <ele>94.7</ele>
        <time>2024-10-17T22:43:53.783Z</time>
      </trkpt>
      <trkpt lat="46.86401" lon="-1.16698">
        <ele>95.9</ele>
        <time>2024-10-17T22:44:04.316Z</time>
      </trkpt>
      <trkpt lat="46.86452" lon="-1.16651">
        <ele>97.3</ele>
        <time>2024-10-17T22:44:17.238Z</time>
      </trkpt>
      <trkpt lat="46.8647" lon="-1.16631">
        <ele>97.9</ele>
        <time>2024-10-17T22:44:22.266Z</time>
      </trkpt>
      <trkpt lat="46.86499" lon="-1.16594">
        <ele>99</ele>
        <time>2024-10-17T22:44:31.026Z</time>
      </trkpt>
      <trkpt lat="46.86515" lon="-1.16571">
        <ele>99.7</ele>
        <time>2024-10-17T22:44:36.288Z</time>
      </trkpt>
      <trkpt lat="46.86538" lon="-1.16529">
        <ele>100.4</ele>
        <time>2024-10-17T22:44:43.823Z</time>
      </trkpt>
      <trkpt lat="46.8675" lon="-1.16078">
        <ele>101</ele>
        <time>2024-10-17T22:45:48.022Z</time>
      </trkpt>
      <trkpt lat="46.86767" lon="-1.1605">
        <ele>100.4</ele>
        <time>2024-10-17T22:45:51.541Z</time>
      </trkpt>
      <trkpt lat="46.86786" lon="-1.16022">
        <ele>100</ele>
        <time>2024-10-17T22:45:55.525Z</time>
      </trkpt>
      <trkpt lat="46.87126" lon="-1.15581">
        <ele>98.6</ele>
        <time>2024-10-17T22:47:10.107Z</time>
      </trkpt>
      <trkpt lat="46.87171" lon="-1.15529">
        <ele>99.8</ele>
        <time>2024-10-17T22:47:22.095Z</time>
      </trkpt>
      <trkpt lat="46.87506" lon="-1.1516">
        <ele>97.8</ele>
        <time>2024-10-17T22:48:29.854Z</time>
      </trkpt>
      <trkpt lat="46.88072" lon="-1.14529">
        <ele>101</ele>
        <time>2024-10-17T22:50:35.417Z</time>
      </trkpt>
      <trkpt lat="46.88355" lon="-1.14217">
        <ele>97</ele>
        <time>2024-10-17T22:51:29.402Z</time>
      </trkpt>
      <trkpt lat="46.88381" lon="-1.14195">
        <ele>97</ele>
        <time>2024-10-17T22:51:34.477Z</time>
      </trkpt>
      <trkpt lat="46.88502" lon="-1.14122">
        <ele>96.5</ele>
        <time>2024-10-17T22:51:55.811Z</time>
      </trkpt>
      <trkpt lat="46.88543" lon="-1.14103">
        <ele>95.7</ele>
        <time>2024-10-17T22:52:01.963Z</time>
      </trkpt>
      <trkpt lat="46.88578" lon="-1.14092">
        <ele>95.7</ele>
        <time>2024-10-17T22:52:08.011Z</time>
      </trkpt>
      <trkpt lat="46.88593" lon="-1.14089">
        <ele>95.7</ele>
        <time>2024-10-17T22:52:10.569Z</time>
      </trkpt>
      <trkpt lat="46.89214" lon="-1.14041">
        <ele>76.1</ele>
        <time>2024-10-17T22:53:30.740Z</time>
      </trkpt>
      <trkpt lat="46.89262" lon="-1.14037">
        <ele>73.5</ele>
        <time>2024-10-17T22:53:36.017Z</time>
      </trkpt>
      <trkpt lat="46.89274" lon="-1.14034">
        <ele>72.8</ele>
        <time>2024-10-17T22:53:37.324Z</time>
      </trkpt>
      <trkpt lat="46.89292" lon="-1.14026">
        <ele>72</ele>
        <time>2024-10-17T22:53:39.559Z</time>
      </trkpt>
      <trkpt lat="46.89307" lon="-1.14013">
        <ele>71.4</ele>
        <time>2024-10-17T22:53:41.757Z</time>
      </trkpt>
      <trkpt lat="46.89314" lon="-1.14005">
        <ele>71.2</ele>
        <time>2024-10-17T22:53:42.987Z</time>
      </trkpt>
      <trkpt lat="46.89326" lon="-1.13982">
        <ele>70.5</ele>
        <time>2024-10-17T22:53:45.462Z</time>
      </trkpt>
      <trkpt lat="46.8933" lon="-1.13967">
        <ele>70</ele>
        <time>2024-10-17T22:53:46.743Z</time>
      </trkpt>
      <trkpt lat="46.89348" lon="-1.13878">
        <ele>66.9</ele>
        <time>2024-10-17T22:53:53.952Z</time>
      </trkpt>
      <trkpt lat="46.89365" lon="-1.13825">
        <ele>69.3</ele>
        <time>2024-10-17T22:54:07.379Z</time>
      </trkpt>
      <trkpt lat="46.89371" lon="-1.13811">
        <ele>69.8</ele>
        <time>2024-10-17T22:54:10.477Z</time>
      </trkpt>
      <trkpt lat="46.89392" lon="-1.13769">
        <ele>71.7</ele>
        <time>2024-10-17T22:54:21.430Z</time>
      </trkpt>
      <trkpt lat="46.89413" lon="-1.13737">
        <ele>73.9</ele>
        <time>2024-10-17T22:54:33.483Z</time>
      </trkpt>
      <trkpt lat="46.89446" lon="-1.13697">
        <ele>77</ele>
        <time>2024-10-17T22:54:50.468Z</time>
      </trkpt>
      <trkpt lat="46.89465" lon="-1.13679">
        <ele>78.8</ele>
        <time>2024-10-17T22:55:00.363Z</time>
      </trkpt>
      <trkpt lat="46.89496" lon="-1.13661">
        <ele>80.7</ele>
        <time>2024-10-17T22:55:11.119Z</time>
      </trkpt>
      <trkpt lat="46.89776" lon="-1.13533">
        <ele>88.2</ele>
        <time>2024-10-17T22:56:15.658Z</time>
      </trkpt>
      <trkpt lat="46.89803" lon="-1.13516">
        <ele>88.4</ele>
        <time>2024-10-17T22:56:20.963Z</time>
      </trkpt>
      <trkpt lat="46.90042" lon="-1.13317">
        <ele>88.8</ele>
        <time>2024-10-17T22:57:08.072Z</time>
      </trkpt>
      <trkpt lat="46.90088" lon="-1.13285">
        <ele>88.7</ele>
        <time>2024-10-17T22:57:16.519Z</time>
      </trkpt>
      <trkpt lat="46.90141" lon="-1.1326">
        <ele>89</ele>
        <time>2024-10-17T22:57:26.431Z</time>
      </trkpt>
      <trkpt lat="46.90198" lon="-1.13242">
        <ele>88.3</ele>
        <time>2024-10-17T22:57:35.259Z</time>
      </trkpt>
      <trkpt lat="46.90224" lon="-1.13237">
        <ele>87.9</ele>
        <time>2024-10-17T22:57:39.118Z</time>
      </trkpt>
      <trkpt lat="46.90259" lon="-1.13234">
        <ele>86.7</ele>
        <time>2024-10-17T22:57:43.545Z</time>
      </trkpt>
      <trkpt lat="46.90337" lon="-1.13234">
        <ele>84.4</ele>
        <time>2024-10-17T22:57:53.761Z</time>
      </trkpt>
      <trkpt lat="46.90377" lon="-1.13228">
        <ele>83.7</ele>
        <time>2024-10-17T22:57:59.571Z</time>
      </trkpt>
      <trkpt lat="46.90412" lon="-1.13217">
        <ele>83.2</ele>
        <time>2024-10-17T22:58:04.898Z</time>
      </trkpt>
      <trkpt lat="46.90442" lon="-1.13203">
        <ele>81.8</ele>
        <time>2024-10-17T22:58:08.588Z</time>
      </trkpt>
      <trkpt lat="46.9046" lon="-1.13192">
        <ele>80.9</ele>
        <time>2024-10-17T22:58:10.848Z</time>
      </trkpt>
      <trkpt lat="46.90495" lon="-1.13164">
        <ele>78.4</ele>
        <time>2024-10-17T22:58:14.992Z</time>
      </trkpt>
      <trkpt lat="46.90597" lon="-1.13059">
        <ele>78.3</ele>
        <time>2024-10-17T22:58:35.901Z</time>
      </trkpt>
      <trkpt lat="46.90614" lon="-1.13047">
        <ele>77.8</ele>
        <time>2024-10-17T22:58:38.432Z</time>
      </trkpt>
      <trkpt lat="46.90625" lon="-1.13085">
        <ele>75.1</ele>
        <time>2024-10-17T22:58:41.290Z</time>
      </trkpt>
      <trkpt lat="46.90638" lon="-1.13114">
        <ele>77</ele>
        <time>2024-10-17T22:58:51.742Z</time>
      </trkpt>
      <trkpt lat="46.90756" lon="-1.1333">
        <ele>87.1</ele>
        <time>2024-10-17T22:59:49.955Z</time>
      </trkpt>
      <trkpt lat="46.90765" lon="-1.13355">
        <ele>87.5</ele>
        <time>2024-10-17T22:59:53.982Z</time>
      </trkpt>
      <trkpt lat="46.90775" lon="-1.13417">
        <ele>88.1</ele>
        <time>2024-10-17T23:00:02.415Z</time>
      </trkpt>
      <trkpt lat="46.90852" lon="-1.13386">
        <ele>87.3</ele>
        <time>2024-10-17T23:00:14.720Z</time>
      </trkpt>
      <trkpt lat="46.90951" lon="-1.13328">
        <ele>84.8</ele>
        <time>2024-10-17T23:00:29.375Z</time>
      </trkpt>
      <trkpt lat="46.90988" lon="-1.13308">
        <ele>84</ele>
        <time>2024-10-17T23:00:34.938Z</time>
      </trkpt>
      <trkpt lat="46.91025" lon="-1.13301">
        <ele>83.1</ele>
        <time>2024-10-17T23:00:40.037Z</time>
      </trkpt>
      <trkpt lat="46.91052" lon="-1.133">
        <ele>83</ele>
        <time>2024-10-17T23:00:44.444Z</time>
      </trkpt>
      <trkpt lat="46.91067" lon="-1.13303">
        <ele>83</ele>
        <time>2024-10-17T23:00:47.002Z</time>
      </trkpt>
      <trkpt lat="46.91258" lon="-1.13359">
        <ele>80</ele>
        <time>2024-10-17T23:01:15.635Z</time>
      </trkpt>
      <trkpt lat="46.9132" lon="-1.13399">
        <ele>81.5</ele>
        <time>2024-10-17T23:01:29.987Z</time>
      </trkpt>
      <trkpt lat="46.91451" lon="-1.13489">
        <ele>83.5</ele>
        <time>2024-10-17T23:01:58.039Z</time>
      </trkpt>
      <trkpt lat="46.91469" lon="-1.13497">
        <ele>83.1</ele>
        <time>2024-10-17T23:02:00.671Z</time>
      </trkpt>
      <trkpt lat="46.91487" lon="-1.13501">
        <ele>83</ele>
        <time>2024-10-17T23:02:03.593Z</time>
      </trkpt>
      <trkpt lat="46.91522" lon="-1.13499">
        <ele>83.8</ele>
        <time>2024-10-17T23:02:11.070Z</time>
      </trkpt>
      <trkpt lat="46.91675" lon="-1.13455">
        <ele>85</ele>
        <time>2024-10-17T23:02:39.467Z</time>
      </trkpt>
      <trkpt lat="46.91727" lon="-1.13429">
        <ele>86</ele>
        <time>2024-10-17T23:02:50.622Z</time>
      </trkpt>
      <trkpt lat="46.9176" lon="-1.13405">
        <ele>86.2</ele>
        <time>2024-10-17T23:02:57.183Z</time>
      </trkpt>
      <trkpt lat="46.91789" lon="-1.1338">
        <ele>86.6</ele>
        <time>2024-10-17T23:03:03.578Z</time>
      </trkpt>
      <trkpt lat="46.91892" lon="-1.13288">
        <ele>89</ele>
        <time>2024-10-17T23:03:28.520Z</time>
      </trkpt>
      <trkpt lat="46.91918" lon="-1.13271">
        <ele>89</ele>
        <time>2024-10-17T23:03:33.331Z</time>
      </trkpt>
      <trkpt lat="46.92098" lon="-1.13171">
        <ele>86.9</ele>
        <time>2024-10-17T23:04:02.760Z</time>
      </trkpt>
      <trkpt lat="46.92119" lon="-1.13162">
        <ele>86.5</ele>
        <time>2024-10-17T23:04:05.899Z</time>
      </trkpt>
      <trkpt lat="46.92155" lon="-1.13153">
        <ele>85.2</ele>
        <time>2024-10-17T23:04:10.463Z</time>
      </trkpt>
      <trkpt lat="46.92228" lon="-1.13141">
        <ele>85.9</ele>
        <time>2024-10-17T23:04:24.091Z</time>
      </trkpt>
      <trkpt lat="46.92261" lon="-1.13139">
        <ele>86.4</ele>
        <time>2024-10-17T23:04:30.582Z</time>
      </trkpt>
      <trkpt lat="46.92279" lon="-1.13142">
        <ele>87</ele>
        <time>2024-10-17T23:04:34.926Z</time>
      </trkpt>
      <trkpt lat="46.92342" lon="-1.13164">
        <ele>87</ele>
        <time>2024-10-17T23:04:45.869Z</time>
      </trkpt>
      <trkpt lat="46.92501" lon="-1.13226">
        <ele>87</ele>
        <time>2024-10-17T23:05:13.670Z</time>
      </trkpt>
      <trkpt lat="46.9254" lon="-1.13237">
        <ele>87</ele>
        <time>2024-10-17T23:05:20.380Z</time>
      </trkpt>
      <trkpt lat="46.9257" lon="-1.1324">
        <ele>87</ele>
        <time>2024-10-17T23:05:25.460Z</time>
      </trkpt>
      <trkpt lat="46.92607" lon="-1.13238">
        <ele>86.6</ele>
        <time>2024-10-17T23:05:31.125Z</time>
      </trkpt>
      <trkpt lat="46.92626" lon="-1.13233">
        <ele>86.2</ele>
        <time>2024-10-17T23:05:33.838Z</time>
      </trkpt>
      <trkpt lat="46.92653" lon="-1.1322">
        <ele>86</ele>
        <time>2024-10-17T23:05:38.337Z</time>
      </trkpt>
      <trkpt lat="46.92675" lon="-1.13202">
        <ele>86</ele>
        <time>2024-10-17T23:05:42.595Z</time>
      </trkpt>
      <trkpt lat="46.92704" lon="-1.13175">
        <ele>86.3</ele>
        <time>2024-10-17T23:05:48.918Z</time>
      </trkpt>
      <trkpt lat="46.92724" lon="-1.13151">
        <ele>87</ele>
        <time>2024-10-17T23:05:54.704Z</time>
      </trkpt>
      <trkpt lat="46.92741" lon="-1.13124">
        <ele>87</ele>
        <time>2024-10-17T23:05:58.942Z</time>
      </trkpt>
      <trkpt lat="46.92813" lon="-1.12993">
        <ele>89</ele>
        <time>2024-10-17T23:06:22.060Z</time>
      </trkpt>
      <trkpt lat="46.92831" lon="-1.12968">
        <ele>89</ele>
        <time>2024-10-17T23:06:26.251Z</time>
      </trkpt>
      <trkpt lat="46.92856" lon="-1.1294">
        <ele>89.8</ele>
        <time>2024-10-17T23:06:33.164Z</time>
      </trkpt>
      <trkpt lat="46.92878" lon="-1.12924">
        <ele>90.4</ele>
        <time>2024-10-17T23:06:38.501Z</time>
      </trkpt>
      <trkpt lat="46.93097" lon="-1.12809">
        <ele>94</ele>
        <time>2024-10-17T23:07:24.386Z</time>
      </trkpt>
      <trkpt lat="46.93141" lon="-1.12789">
        <ele>94.1</ele>
        <time>2024-10-17T23:07:32.333Z</time>
      </trkpt>
      <trkpt lat="46.93175" lon="-1.12783">
        <ele>95</ele>
        <time>2024-10-17T23:07:39.928Z</time>
      </trkpt>
      <trkpt lat="46.93211" lon="-1.12784">
        <ele>95.5</ele>
        <time>2024-10-17T23:07:46.913Z</time>
      </trkpt>
      <trkpt lat="46.93749" lon="-1.12825">
        <ele>102</ele>
        <time>2024-10-17T23:09:29.468Z</time>
      </trkpt>
      <trkpt lat="46.93797" lon="-1.12821">
        <ele>102.4</ele>
        <time>2024-10-17T23:09:38.279Z</time>
      </trkpt>
      <trkpt lat="46.94969" lon="-1.12435">
        <ele>105.9</ele>
        <time>2024-10-17T23:13:06.996Z</time>
      </trkpt>
      <trkpt lat="46.95783" lon="-1.12157">
        <ele>105</ele>
        <time>2024-10-17T23:15:26.780Z</time>
      </trkpt>
      <trkpt lat="46.95937" lon="-1.12102">
        <ele>106.2</ele>
        <time>2024-10-17T23:15:55.612Z</time>
      </trkpt>
      <trkpt lat="46.96146" lon="-1.12033">
        <ele>106</ele>
        <time>2024-10-17T23:16:31.490Z</time>
      </trkpt>
      <trkpt lat="46.96145" lon="-1.12">
        <ele>106.8</ele>
        <time>2024-10-17T23:16:37.049Z</time>
      </trkpt>
      <trkpt lat="46.96154" lon="-1.11851">
        <ele>107</ele>
        <time>2024-10-17T23:16:54.624Z</time>
      </trkpt>
      <trkpt lat="46.96152" lon="-1.11822">
        <ele>107</ele>
        <time>2024-10-17T23:16:57.985Z</time>
      </trkpt>
      <trkpt lat="46.96113" lon="-1.11577">
        <ele>108</ele>
        <time>2024-10-17T23:17:28.679Z</time>
      </trkpt>
      <trkpt lat="46.96107" lon="-1.11532">
        <ele>108.9</ele>
        <time>2024-10-17T23:17:35.816Z</time>
      </trkpt>
      <trkpt lat="46.96107" lon="-1.11517">
        <ele>109</ele>
        <time>2024-10-17T23:17:37.720Z</time>
      </trkpt>
      <trkpt lat="46.96118" lon="-1.11492">
        <ele>109</ele>
        <time>2024-10-17T23:17:41.150Z</time>
      </trkpt>
      <trkpt lat="46.96121" lon="-1.11488">
        <ele>109</ele>
        <time>2024-10-17T23:17:41.835Z</time>
      </trkpt>
      <trkpt lat="46.96092" lon="-1.11427">
        <ele>109.9</ele>
        <time>2024-10-17T23:17:52.084Z</time>
      </trkpt>
      <trkpt lat="46.96076" lon="-1.11387">
        <ele>110</ele>
        <time>2024-10-17T23:17:57.595Z</time>
      </trkpt>
      <trkpt lat="46.96062" lon="-1.11346">
        <ele>110.1</ele>
        <time>2024-10-17T23:18:03.046Z</time>
      </trkpt>
      <trkpt lat="46.96045" lon="-1.11288">
        <ele>111</ele>
        <time>2024-10-17T23:18:12.049Z</time>
      </trkpt>
      <trkpt lat="46.96023" lon="-1.11206">
        <ele>111</ele>
        <time>2024-10-17T23:18:22.209Z</time>
      </trkpt>
      <trkpt lat="46.96013" lon="-1.11179">
        <ele>111</ele>
        <time>2024-10-17T23:18:25.751Z</time>
      </trkpt>
      <trkpt lat="46.9601" lon="-1.11179">
        <ele>111</ele>
        <time>2024-10-17T23:18:26.258Z</time>
      </trkpt>
      <trkpt lat="46.96005" lon="-1.11174">
        <ele>111</ele>
        <time>2024-10-17T23:18:27.281Z</time>
      </trkpt>
      <trkpt lat="46.96003" lon="-1.1117">
        <ele>111</ele>
        <time>2024-10-17T23:18:27.853Z</time>
      </trkpt>
      <trkpt lat="46.96003" lon="-1.11163">
        <ele>111</ele>
        <time>2024-10-17T23:18:28.660Z</time>
      </trkpt>
      <trkpt lat="46.96006" lon="-1.11155">
        <ele>111</ele>
        <time>2024-10-17T23:18:29.713Z</time>
      </trkpt>
      <trkpt lat="46.96009" lon="-1.11153">
        <ele>111</ele>
        <time>2024-10-17T23:18:30.269Z</time>
      </trkpt>
      <trkpt lat="46.96004" lon="-1.11124">
        <ele>111.5</ele>
        <time>2024-10-17T23:18:34.707Z</time>
      </trkpt>
      <trkpt lat="46.95964" lon="-1.10949">
        <ele>111</ele>
        <time>2024-10-17T23:18:55.211Z</time>
      </trkpt>
      <trkpt lat="46.95924" lon="-1.10766">
        <ele>109</ele>
        <time>2024-10-17T23:19:14.513Z</time>
      </trkpt>
      <trkpt lat="46.95792" lon="-1.10194">
        <ele>103</ele>
        <time>2024-10-17T23:20:15.532Z</time>
      </trkpt>
      <trkpt lat="46.95707" lon="-1.09815">
        <ele>103.2</ele>
        <time>2024-10-17T23:21:01.860Z</time>
      </trkpt>
      <trkpt lat="46.95571" lon="-1.09216">
        <ele>114.7</ele>
        <time>2024-10-17T23:22:37.857Z</time>
      </trkpt>
      <trkpt lat="46.95525" lon="-1.09021">
        <ele>120.1</ele>
        <time>2024-10-17T23:23:13.786Z</time>
      </trkpt>
      <trkpt lat="46.9551" lon="-1.0896">
        <ele>121.6</ele>
        <time>2024-10-17T23:23:24.496Z</time>
      </trkpt>
      <trkpt lat="46.95476" lon="-1.08855">
        <ele>123.2</ele>
        <time>2024-10-17T23:23:40.944Z</time>
      </trkpt>
      <trkpt lat="46.95229" lon="-1.08157">
        <ele>121.2</ele>
        <time>2024-10-17T23:25:08.498Z</time>
      </trkpt>
      <trkpt lat="46.95161" lon="-1.07967">
        <ele>123</ele>
        <time>2024-10-17T23:25:36.440Z</time>
      </trkpt>
      <trkpt lat="46.95156" lon="-1.07969">
        <ele>123</ele>
        <time>2024-10-17T23:25:37.316Z</time>
      </trkpt>
      <trkpt lat="46.95148" lon="-1.07968">
        <ele>123</ele>
        <time>2024-10-17T23:25:38.672Z</time>
      </trkpt>
      <trkpt lat="46.95141" lon="-1.0796">
        <ele>123</ele>
        <time>2024-10-17T23:25:40.172Z</time>
      </trkpt>
      <trkpt lat="46.95139" lon="-1.07948">
        <ele>123</ele>
        <time>2024-10-17T23:25:41.597Z</time>
      </trkpt>
      <trkpt lat="46.95141" lon="-1.07936">
        <ele>123.3</ele>
        <time>2024-10-17T23:25:43.678Z</time>
      </trkpt>
      <trkpt lat="46.95148" lon="-1.07928">
        <ele>123.4</ele>
        <time>2024-10-17T23:25:45.355Z</time>
      </trkpt>
      <trkpt lat="46.95049" lon="-1.07656">
        <ele>124.5</ele>
        <time>2024-10-17T23:26:22.750Z</time>
      </trkpt>
      <trkpt lat="46.94985" lon="-1.07471">
        <ele>121</ele>
        <time>2024-10-17T23:26:42.007Z</time>
      </trkpt>
      <trkpt lat="46.94972" lon="-1.07438">
        <ele>119.8</ele>
        <time>2024-10-17T23:26:45.019Z</time>
      </trkpt>
      <trkpt lat="46.94957" lon="-1.07416">
        <ele>118.4</ele>
        <time>2024-10-17T23:26:47.181Z</time>
      </trkpt>
      <trkpt lat="46.94939" lon="-1.074">
        <ele>117.2</ele>
        <time>2024-10-17T23:26:49.448Z</time>
      </trkpt>
      <trkpt lat="46.94911" lon="-1.07385">
        <ele>117.2</ele>
        <time>2024-10-17T23:26:54.485Z</time>
      </trkpt>
      <trkpt lat="46.94871" lon="-1.07368">
        <ele>119.6</ele>
        <time>2024-10-17T23:27:08.034Z</time>
      </trkpt>
      <trkpt lat="46.94848" lon="-1.07354">
        <ele>121.1</ele>
        <time>2024-10-17T23:27:16.420Z</time>
      </trkpt>
      <trkpt lat="46.94825" lon="-1.07338">
        <ele>122.4</ele>
        <time>2024-10-17T23:27:24.026Z</time>
      </trkpt>
      <trkpt lat="46.94788" lon="-1.07303">
        <ele>123.2</ele>
        <time>2024-10-17T23:27:32.963Z</time>
      </trkpt>
      <trkpt lat="46.94719" lon="-1.07218">
        <ele>125.2</ele>
        <time>2024-10-17T23:27:52.071Z</time>
      </trkpt>
      <trkpt lat="46.94673" lon="-1.07145">
        <ele>127.8</ele>
        <time>2024-10-17T23:28:09.372Z</time>
      </trkpt>
      <trkpt lat="46.94606" lon="-1.07028">
        <ele>130.4</ele>
        <time>2024-10-17T23:28:32.149Z</time>
      </trkpt>
      <trkpt lat="46.94541" lon="-1.06899">
        <ele>131</ele>
        <time>2024-10-17T23:28:51.650Z</time>
      </trkpt>
      <trkpt lat="46.94488" lon="-1.06783">
        <ele>132.5</ele>
        <time>2024-10-17T23:29:10.497Z</time>
      </trkpt>
      <trkpt lat="46.94485" lon="-1.06785">
        <ele>132.7</ele>
        <time>2024-10-17T23:29:11.613Z</time>
      </trkpt>
      <trkpt lat="46.94478" lon="-1.06783">
        <ele>132.9</ele>
        <time>2024-10-17T23:29:13.227Z</time>
      </trkpt>
      <trkpt lat="46.94475" lon="-1.06779">
        <ele>132.9</ele>
        <time>2024-10-17T23:29:13.912Z</time>
      </trkpt>
      <trkpt lat="46.94474" lon="-1.06774">
        <ele>132.9</ele>
        <time>2024-10-17T23:29:14.513Z</time>
      </trkpt>
      <trkpt lat="46.94475" lon="-1.06765">
        <ele>132.9</ele>
        <time>2024-10-17T23:29:15.565Z</time>
      </trkpt>
      <trkpt lat="46.94477" lon="-1.06761">
        <ele>132.8</ele>
        <time>2024-10-17T23:29:16.008Z</time>
      </trkpt>
      <trkpt lat="46.94472" lon="-1.06748">
        <ele>133</ele>
        <time>2024-10-17T23:29:18.108Z</time>
      </trkpt>
      <trkpt lat="46.94336" lon="-1.06509">
        <ele>142.9</ele>
        <time>2024-10-17T23:30:18.087Z</time>
      </trkpt>
      <trkpt lat="46.94327" lon="-1.06499">
        <ele>143.5</ele>
        <time>2024-10-17T23:30:21.552Z</time>
      </trkpt>
      <trkpt lat="46.94314" lon="-1.06494">
        <ele>144.6</ele>
        <time>2024-10-17T23:30:27.615Z</time>
      </trkpt>
      <trkpt lat="46.94301" lon="-1.06493">
        <ele>145.5</ele>
        <time>2024-10-17T23:30:32.555Z</time>
      </trkpt>
      <trkpt lat="46.94276" lon="-1.06494">
        <ele>147.1</ele>
        <time>2024-10-17T23:30:41.407Z</time>
      </trkpt>
      <trkpt lat="46.94271" lon="-1.06491">
        <ele>147.2</ele>
        <time>2024-10-17T23:30:42.507Z</time>
      </trkpt>
      <trkpt lat="46.94266" lon="-1.06486">
        <ele>147.4</ele>
        <time>2024-10-17T23:30:43.958Z</time>
      </trkpt>
      <trkpt lat="46.94256" lon="-1.06462">
        <ele>148.2</ele>
        <time>2024-10-17T23:30:49.057Z</time>
      </trkpt>
      <trkpt lat="46.9425" lon="-1.06446">
        <ele>148.9</ele>
        <time>2024-10-17T23:30:53.035Z</time>
      </trkpt>
      <trkpt lat="46.94245" lon="-1.06441">
        <ele>149.2</ele>
        <time>2024-10-17T23:30:54.809Z</time>
      </trkpt>
      <trkpt lat="46.94215" lon="-1.06424">
        <ele>150.2</ele>
        <time>2024-10-17T23:31:02.344Z</time>
      </trkpt>
      <trkpt lat="46.94179" lon="-1.06406">
        <ele>151.4</ele>
        <time>2024-10-17T23:31:11.301Z</time>
      </trkpt>
      <trkpt lat="46.94158" lon="-1.06392">
        <ele>152.2</ele>
        <time>2024-10-17T23:31:16.936Z</time>
      </trkpt>
      <trkpt lat="46.94152" lon="-1.06385">
        <ele>152.7</ele>
        <time>2024-10-17T23:31:19.696Z</time>
      </trkpt>
      <trkpt lat="46.94129" lon="-1.06343">
        <ele>155</ele>
        <time>2024-10-17T23:31:32.464Z</time>
      </trkpt>
      <trkpt lat="46.94113" lon="-1.06323">
        <ele>156</ele>
        <time>2024-10-17T23:31:38.473Z</time>
      </trkpt>
      <trkpt lat="46.94101" lon="-1.06313">
        <ele>156.4</ele>
        <time>2024-10-17T23:31:41.630Z</time>
      </trkpt>
      <trkpt lat="46.94055" lon="-1.06279">
        <ele>159</ele>
        <time>2024-10-17T23:31:56.906Z</time>
      </trkpt>
      <trkpt lat="46.94025" lon="-1.06262">
        <ele>161.2</ele>
        <time>2024-10-17T23:32:08.990Z</time>
      </trkpt>
      <trkpt lat="46.93954" lon="-1.06226">
        <ele>164.9</ele>
        <time>2024-10-17T23:32:30.923Z</time>
      </trkpt>
      <trkpt lat="46.93937" lon="-1.06214">
        <ele>165.3</ele>
        <time>2024-10-17T23:32:34.879Z</time>
      </trkpt>
      <trkpt lat="46.93915" lon="-1.06197">
        <ele>165.8</ele>
        <time>2024-10-17T23:32:40.033Z</time>
      </trkpt>
      <trkpt lat="46.9387" lon="-1.06147">
        <ele>167.7</ele>
        <time>2024-10-17T23:32:53.662Z</time>
      </trkpt>
      <trkpt lat="46.93847" lon="-1.06118">
        <ele>169</ele>
        <time>2024-10-17T23:33:01.839Z</time>
      </trkpt>
      <trkpt lat="46.93826" lon="-1.06084">
        <ele>169.7</ele>
        <time>2024-10-17T23:33:08.486Z</time>
      </trkpt>
      <trkpt lat="46.938" lon="-1.0603">
        <ele>171.1</ele>
        <time>2024-10-17T23:33:19.047Z</time>
      </trkpt>
      <trkpt lat="46.9379" lon="-1.06003">
        <ele>172.5</ele>
        <time>2024-10-17T23:33:26.753Z</time>
      </trkpt>
      <trkpt lat="46.93782" lon="-1.05971">
        <ele>174.2</ele>
        <time>2024-10-17T23:33:36.067Z</time>
      </trkpt>
      <trkpt lat="46.93772" lon="-1.05912">
        <ele>174.5</ele>
        <time>2024-10-17T23:33:43.591Z</time>
      </trkpt>
      <trkpt lat="46.9376" lon="-1.05862">
        <ele>174.7</ele>
        <time>2024-10-17T23:33:50.041Z</time>
      </trkpt>
      <trkpt lat="46.93753" lon="-1.05843">
        <ele>174.8</ele>
        <time>2024-10-17T23:33:52.701Z</time>
      </trkpt>
      <trkpt lat="46.9373" lon="-1.05799">
        <ele>175.7</ele>
        <time>2024-10-17T23:34:00.863Z</time>
      </trkpt>
      <trkpt lat="46.93716" lon="-1.0578">
        <ele>176.8</ele>
        <time>2024-10-17T23:34:07.072Z</time>
      </trkpt>
      <trkpt lat="46.93703" lon="-1.05765">
        <ele>177.5</ele>
        <time>2024-10-17T23:34:11.502Z</time>
      </trkpt>
      <trkpt lat="46.93665" lon="-1.05734">
        <ele>179.7</ele>
        <time>2024-10-17T23:34:24.417Z</time>
      </trkpt>
      <trkpt lat="46.93582" lon="-1.0568">
        <ele>184</ele>
        <time>2024-10-17T23:34:50.301Z</time>
      </trkpt>
      <trkpt lat="46.93548" lon="-1.05664">
        <ele>185.3</ele>
        <time>2024-10-17T23:34:59.204Z</time>
      </trkpt>
      <trkpt lat="46.93427" lon="-1.05625">
        <ele>187.7</ele>
        <time>2024-10-17T23:35:24.672Z</time>
      </trkpt>
      <trkpt lat="46.9335" lon="-1.05592">
        <ele>187.3</ele>
        <time>2024-10-17T23:35:37.610Z</time>
      </trkpt>
      <trkpt lat="46.93186" lon="-1.05513">
        <ele>183.5</ele>
        <time>2024-10-17T23:36:01.616Z</time>
      </trkpt>
      <trkpt lat="46.93184" lon="-1.0552">
        <ele>183.3</ele>
        <time>2024-10-17T23:36:02.249Z</time>
      </trkpt>
      <trkpt lat="46.93175" lon="-1.05531">
        <ele>182.9</ele>
        <time>2024-10-17T23:36:03.731Z</time>
      </trkpt>
      <trkpt lat="46.93169" lon="-1.05533">
        <ele>182.8</ele>
        <time>2024-10-17T23:36:04.629Z</time>
      </trkpt>
      <trkpt lat="46.93162" lon="-1.05533">
        <ele>182.4</ele>
        <time>2024-10-17T23:36:05.382Z</time>
      </trkpt>
      <trkpt lat="46.93155" lon="-1.05529">
        <ele>182.1</ele>
        <time>2024-10-17T23:36:06.292Z</time>
      </trkpt>
      <trkpt lat="46.9315" lon="-1.05523">
        <ele>182.1</ele>
        <time>2024-10-17T23:36:07.384Z</time>
      </trkpt>
      <trkpt lat="46.93146" lon="-1.05516">
        <ele>182.3</ele>
        <time>2024-10-17T23:36:08.861Z</time>
      </trkpt>
      <trkpt lat="46.93144" lon="-1.05499">
        <ele>183.2</ele>
        <time>2024-10-17T23:36:13.796Z</time>
      </trkpt>
      <trkpt lat="46.93146" lon="-1.05491">
        <ele>183.3</ele>
        <time>2024-10-17T23:36:14.964Z</time>
      </trkpt>
      <trkpt lat="46.92178" lon="-1.0502">
        <ele>161.7</ele>
        <time>2024-10-17T23:38:37.781Z</time>
      </trkpt>
      <trkpt lat="46.9206" lon="-1.0496">
        <ele>157.2</ele>
        <time>2024-10-17T23:38:53.344Z</time>
      </trkpt>
      <trkpt lat="46.91893" lon="-1.0488">
        <ele>151.6</ele>
        <time>2024-10-17T23:39:15.935Z</time>
      </trkpt>
      <trkpt lat="46.91797" lon="-1.04831">
        <ele>148.7</ele>
        <time>2024-10-17T23:39:29.351Z</time>
      </trkpt>
      <trkpt lat="46.91719" lon="-1.04789">
        <ele>144.8</ele>
        <time>2024-10-17T23:39:38.924Z</time>
      </trkpt>
      <trkpt lat="46.91622" lon="-1.04732">
        <ele>140.9</ele>
        <time>2024-10-17T23:39:51.822Z</time>
      </trkpt>
      <trkpt lat="46.91139" lon="-1.04494">
        <ele>121.2</ele>
        <time>2024-10-17T23:40:54.091Z</time>
      </trkpt>
      <trkpt lat="46.91094" lon="-1.04475">
        <ele>118.8</ele>
        <time>2024-10-17T23:40:59.330Z</time>
      </trkpt>
      <trkpt lat="46.91037" lon="-1.04456">
        <ele>115.4</ele>
        <time>2024-10-17T23:41:05.579Z</time>
      </trkpt>
      <trkpt lat="46.90978" lon="-1.04442">
        <ele>116.5</ele>
        <time>2024-10-17T23:41:17.738Z</time>
      </trkpt>
      <trkpt lat="46.90931" lon="-1.04437">
        <ele>117.3</ele>
        <time>2024-10-17T23:41:27.181Z</time>
      </trkpt>
      <trkpt lat="46.90853" lon="-1.04437">
        <ele>120.8</ele>
        <time>2024-10-17T23:41:48.734Z</time>
      </trkpt>
      <trkpt lat="46.9063" lon="-1.04453">
        <ele>124</ele>
        <time>2024-10-17T23:42:32.245Z</time>
      </trkpt>
      <trkpt lat="46.9058" lon="-1.04454">
        <ele>124</ele>
        <time>2024-10-17T23:42:40.694Z</time>
      </trkpt>
      <trkpt lat="46.90535" lon="-1.0445">
        <ele>123.9</ele>
        <time>2024-10-17T23:42:48.153Z</time>
      </trkpt>
      <trkpt lat="46.90491" lon="-1.04443">
        <ele>123</ele>
        <time>2024-10-17T23:42:54.393Z</time>
      </trkpt>
      <trkpt lat="46.90409" lon="-1.0442">
        <ele>121.7</ele>
        <time>2024-10-17T23:43:06.648Z</time>
      </trkpt>
      <trkpt lat="46.90231" lon="-1.04339">
        <ele>119.5</ele>
        <time>2024-10-17T23:43:34.918Z</time>
      </trkpt>
      <trkpt lat="46.9021" lon="-1.04339">
        <ele>120.2</ele>
        <time>2024-10-17T23:43:39.967Z</time>
      </trkpt>
      <trkpt lat="46.90198" lon="-1.04344">
        <ele>120.5</ele>
        <time>2024-10-17T23:43:42.666Z</time>
      </trkpt>
      <trkpt lat="46.90192" lon="-1.04357">
        <ele>120.2</ele>
        <time>2024-10-17T23:43:44.087Z</time>
      </trkpt>
      <trkpt lat="46.90181" lon="-1.04365">
        <ele>119.9</ele>
        <time>2024-10-17T23:43:45.761Z</time>
      </trkpt>
      <trkpt lat="46.90175" lon="-1.04365">
        <ele>119.9</ele>
        <time>2024-10-17T23:43:46.775Z</time>
      </trkpt>
      <trkpt lat="46.90167" lon="-1.04362">
        <ele>120</ele>
        <time>2024-10-17T23:43:48.348Z</time>
      </trkpt>
      <trkpt lat="46.90158" lon="-1.04354">
        <ele>120.4</ele>
        <time>2024-10-17T23:43:51.023Z</time>
      </trkpt>
      <trkpt lat="46.90154" lon="-1.04343">
        <ele>120.7</ele>
        <time>2024-10-17T23:43:53.116Z</time>
      </trkpt>
      <trkpt lat="46.90152" lon="-1.04331">
        <ele>120.9</ele>
        <time>2024-10-17T23:43:54.935Z</time>
      </trkpt>
      <trkpt lat="46.90153" lon="-1.04319">
        <ele>121</ele>
        <time>2024-10-17T23:43:56.508Z</time>
      </trkpt>
      <trkpt lat="46.90156" lon="-1.04311">
        <ele>121</ele>
        <time>2024-10-17T23:43:57.561Z</time>
      </trkpt>
      <trkpt lat="46.9016" lon="-1.04304">
        <ele>121</ele>
        <time>2024-10-17T23:43:58.615Z</time>
      </trkpt>
      <trkpt lat="46.90167" lon="-1.04297">
        <ele>121</ele>
        <time>2024-10-17T23:44:00.047Z</time>
      </trkpt>
      <trkpt lat="46.90137" lon="-1.04298">
        <ele>121</ele>
        <time>2024-10-17T23:44:05.117Z</time>
      </trkpt>
      <trkpt lat="46.90107" lon="-1.04288">
        <ele>121.7</ele>
        <time>2024-10-17T23:44:11.678Z</time>
      </trkpt>
      <trkpt lat="46.89936" lon="-1.04204">
        <ele>122</ele>
        <time>2024-10-17T23:44:42.642Z</time>
      </trkpt>
      <trkpt lat="46.89572" lon="-1.04006">
        <ele>118</ele>
        <time>2024-10-17T23:45:42.324Z</time>
      </trkpt>
      <trkpt lat="46.89545" lon="-1.04001">
        <ele>118</ele>
        <time>2024-10-17T23:45:46.923Z</time>
      </trkpt>
      <trkpt lat="46.89514" lon="-1.03981">
        <ele>118</ele>
        <time>2024-10-17T23:45:52.647Z</time>
      </trkpt>
      <trkpt lat="46.89506" lon="-1.0397">
        <ele>118</ele>
        <time>2024-10-17T23:45:54.501Z</time>
      </trkpt>
      <trkpt lat="46.89482" lon="-1.0396">
        <ele>118</ele>
        <time>2024-10-17T23:45:58.717Z</time>
      </trkpt>
      <trkpt lat="46.89091" lon="-1.03744">
        <ele>115.3</ele>
        <time>2024-10-17T23:47:05.208Z</time>
      </trkpt>
      <trkpt lat="46.89066" lon="-1.03728">
        <ele>114.4</ele>
        <time>2024-10-17T23:47:08.686Z</time>
      </trkpt>
      <trkpt lat="46.88947" lon="-1.03633">
        <ele>113</ele>
        <time>2024-10-17T23:47:29.515Z</time>
      </trkpt>
      <trkpt lat="46.88908" lon="-1.03597">
        <ele>113.2</ele>
        <time>2024-10-17T23:47:37.639Z</time>
      </trkpt>
      <trkpt lat="46.88902" lon="-1.03583">
        <ele>113.5</ele>
        <time>2024-10-17T23:47:40.151Z</time>
      </trkpt>
      <trkpt lat="46.88901" lon="-1.03565">
        <ele>113.9</ele>
        <time>2024-10-17T23:47:43.087Z</time>
      </trkpt>
      <trkpt lat="46.88888" lon="-1.03555">
        <ele>114</ele>
        <time>2024-10-17T23:47:45.738Z</time>
      </trkpt>
      <trkpt lat="46.8888" lon="-1.03553">
        <ele>113.7</ele>
        <time>2024-10-17T23:47:46.742Z</time>
      </trkpt>
      <trkpt lat="46.88874" lon="-1.03547">
        <ele>113.6</ele>
        <time>2024-10-17T23:47:47.825Z</time>
      </trkpt>
      <trkpt lat="46.88864" lon="-1.03518">
        <ele>114</ele>
        <time>2024-10-17T23:47:52.323Z</time>
      </trkpt>
      <trkpt lat="46.88852" lon="-1.03467">
        <ele>115.1</ele>
        <time>2024-10-17T23:48:00.835Z</time>
      </trkpt>
      <trkpt lat="46.88848" lon="-1.03418">
        <ele>116.5</ele>
        <time>2024-10-17T23:48:09.776Z</time>
      </trkpt>
      <trkpt lat="46.88853" lon="-1.03277">
        <ele>120</ele>
        <time>2024-10-17T23:48:33.792Z</time>
      </trkpt>
      <trkpt lat="46.88851" lon="-1.03212">
        <ele>122.4</ele>
        <time>2024-10-17T23:48:47.584Z</time>
      </trkpt>
      <trkpt lat="46.88843" lon="-1.03157">
        <ele>124.2</ele>
        <time>2024-10-17T23:48:58.467Z</time>
      </trkpt>
      <trkpt lat="46.88831" lon="-1.0314">
        <ele>124.8</ele>
        <time>2024-10-17T23:49:02.607Z</time>
      </trkpt>
      <trkpt lat="46.88819" lon="-1.03102">
        <ele>124.6</ele>
        <time>2024-10-17T23:49:07.137Z</time>
      </trkpt>
      <trkpt lat="46.88803" lon="-1.03063">
        <ele>124.5</ele>
        <time>2024-10-17T23:49:12.233Z</time>
      </trkpt>
      <trkpt lat="46.88785" lon="-1.03027">
        <ele>125.3</ele>
        <time>2024-10-17T23:49:18.990Z</time>
      </trkpt>
      <trkpt lat="46.88769" lon="-1.03">
        <ele>125.7</ele>
        <time>2024-10-17T23:49:23.853Z</time>
      </trkpt>
      <trkpt lat="46.8875" lon="-1.02974">
        <ele>125.9</ele>
        <time>2024-10-17T23:49:28.591Z</time>
      </trkpt>
      <trkpt lat="46.88723" lon="-1.02946">
        <ele>126.9</ele>
        <time>2024-10-17T23:49:36.265Z</time>
      </trkpt>
      <trkpt lat="46.88692" lon="-1.02919">
        <ele>126.8</ele>
        <time>2024-10-17T23:49:42.203Z</time>
      </trkpt>
      <trkpt lat="46.88196" lon="-1.02544">
        <ele>121</ele>
        <time>2024-10-17T23:51:07.942Z</time>
      </trkpt>
      <trkpt lat="46.88189" lon="-1.02554">
        <ele>120.8</ele>
        <time>2024-10-17T23:51:09.320Z</time>
      </trkpt>
      <trkpt lat="46.8818" lon="-1.02555">
        <ele>120.5</ele>
        <time>2024-10-17T23:51:10.468Z</time>
      </trkpt>
      <trkpt lat="46.88172" lon="-1.02546">
        <ele>120.5</ele>
        <time>2024-10-17T23:51:12.173Z</time>
      </trkpt>
      <trkpt lat="46.88169" lon="-1.02533">
        <ele>120.8</ele>
        <time>2024-10-17T23:51:14.393Z</time>
      </trkpt>
      <trkpt lat="46.88171" lon="-1.02526">
        <ele>121</ele>
        <time>2024-10-17T23:51:15.720Z</time>
      </trkpt>
      <trkpt lat="46.87724" lon="-1.02188">
        <ele>117.2</ele>
        <time>2024-10-17T23:52:34.982Z</time>
      </trkpt>
      <trkpt lat="46.87704" lon="-1.02165">
        <ele>118</ele>
        <time>2024-10-17T23:52:40.965Z</time>
      </trkpt>
      <trkpt lat="46.87701" lon="-1.0217">
        <ele>117.9</ele>
        <time>2024-10-17T23:52:41.598Z</time>
      </trkpt>
      <trkpt lat="46.87695" lon="-1.02173">
        <ele>117.8</ele>
        <time>2024-10-17T23:52:42.527Z</time>
      </trkpt>
      <trkpt lat="46.87689" lon="-1.02171">
        <ele>117.9</ele>
        <time>2024-10-17T23:52:43.751Z</time>
      </trkpt>
      <trkpt lat="46.87684" lon="-1.02159">
        <ele>118</ele>
        <time>2024-10-17T23:52:45.549Z</time>
      </trkpt>
      <trkpt lat="46.87685" lon="-1.0215">
        <ele>118</ele>
        <time>2024-10-17T23:52:46.602Z</time>
      </trkpt>
      <trkpt lat="46.87667" lon="-1.02144">
        <ele>118</ele>
        <time>2024-10-17T23:52:49.721Z</time>
      </trkpt>
      <trkpt lat="46.87453" lon="-1.01983">
        <ele>109.5</ele>
        <time>2024-10-17T23:53:19.860Z</time>
      </trkpt>
      <trkpt lat="46.87317" lon="-1.01884">
        <ele>109.6</ele>
        <time>2024-10-17T23:53:45.687Z</time>
      </trkpt>
      <trkpt lat="46.87229" lon="-1.01816">
        <ele>111.9</ele>
        <time>2024-10-17T23:54:06.995Z</time>
      </trkpt>
      <trkpt lat="46.87083" lon="-1.01709">
        <ele>109</ele>
        <time>2024-10-17T23:54:30.521Z</time>
      </trkpt>
      <trkpt lat="46.87081" lon="-1.01707">
        <ele>108.9</ele>
        <time>2024-10-17T23:54:30.812Z</time>
      </trkpt>
      <trkpt lat="46.87077" lon="-1.01712">
        <ele>108.8</ele>
        <time>2024-10-17T23:54:31.562Z</time>
      </trkpt>
      <trkpt lat="46.87074" lon="-1.01711">
        <ele>108.7</ele>
        <time>2024-10-17T23:54:31.955Z</time>
      </trkpt>
      <trkpt lat="46.87072" lon="-1.01708">
        <ele>108.6</ele>
        <time>2024-10-17T23:54:32.315Z</time>
      </trkpt>
      <trkpt lat="46.87072" lon="-1.01703">
        <ele>108.6</ele>
        <time>2024-10-17T23:54:32.893Z</time>
      </trkpt>
      <trkpt lat="46.87077" lon="-1.017">
        <ele>108.8</ele>
        <time>2024-10-17T23:54:34.250Z</time>
      </trkpt>
      <trkpt lat="46.87084" lon="-1.01655">
        <ele>108</ele>
        <time>2024-10-17T23:54:38.519Z</time>
      </trkpt>
      <trkpt lat="46.87106" lon="-1.01535">
        <ele>106.4</ele>
        <time>2024-10-17T23:54:50.645Z</time>
      </trkpt>
      <trkpt lat="46.8711" lon="-1.01477">
        <ele>105.9</ele>
        <time>2024-10-17T23:54:56.650Z</time>
      </trkpt>
      <trkpt lat="46.87116" lon="-1.01319">
        <ele>106.2</ele>
        <time>2024-10-17T23:55:15.421Z</time>
      </trkpt>
      <trkpt lat="46.87114" lon="-1.01307">
        <ele>106.1</ele>
        <time>2024-10-17T23:55:16.701Z</time>
      </trkpt>
      <trkpt lat="46.87066" lon="-1.01141">
        <ele>102</ele>
        <time>2024-10-17T23:55:32.374Z</time>
      </trkpt>
      <trkpt lat="46.87039" lon="-1.01059">
        <ele>102.1</ele>
        <time>2024-10-17T23:55:43.049Z</time>
      </trkpt>
      <trkpt lat="46.87006" lon="-1.00942">
        <ele>102.8</ele>
        <time>2024-10-17T23:55:58.870Z</time>
      </trkpt>
      <trkpt lat="46.87001" lon="-1.00935">
        <ele>103</ele>
        <time>2024-10-17T23:56:00.451Z</time>
      </trkpt>
      <trkpt lat="46.86997" lon="-1.00935">
        <ele>103</ele>
        <time>2024-10-17T23:56:01.127Z</time>
      </trkpt>
      <trkpt lat="46.86996" lon="-1.00932">
        <ele>103</ele>
        <time>2024-10-17T23:56:01.512Z</time>
      </trkpt>
      <trkpt lat="46.86998" lon="-1.00924">
        <ele>103</ele>
        <time>2024-10-17T23:56:02.496Z</time>
      </trkpt>
      <trkpt lat="46.86999" lon="-1.00914">
        <ele>103.1</ele>
        <time>2024-10-17T23:56:03.845Z</time>
      </trkpt>
      <trkpt lat="46.86983" lon="-1.00859">
        <ele>104.6</ele>
        <time>2024-10-17T23:56:14.068Z</time>
      </trkpt>
      <trkpt lat="46.86962" lon="-1.00754">
        <ele>107.3</ele>
        <time>2024-10-17T23:56:32.646Z</time>
      </trkpt>
      <trkpt lat="46.86947" lon="-1.00665">
        <ele>108.7</ele>
        <time>2024-10-17T23:56:45.950Z</time>
      </trkpt>
      <trkpt lat="46.86853" lon="-1.00633">
        <ele>111.2</ele>
        <time>2024-10-17T23:57:07.263Z</time>
      </trkpt>
      <trkpt lat="46.86836" lon="-1.00634">
        <ele>111.2</ele>
        <time>2024-10-17T23:57:10.138Z</time>
      </trkpt>
      <trkpt lat="46.86765" lon="-1.00654">
        <ele>110</ele>
        <time>2024-10-17T23:57:20.658Z</time>
      </trkpt>
      <trkpt lat="46.86714" lon="-1.00674">
        <ele>110</ele>
        <time>2024-10-17T23:57:29.579Z</time>
      </trkpt>
      <trkpt lat="46.86712" lon="-1.00666">
        <ele>110</ele>
        <time>2024-10-17T23:57:30.563Z</time>
      </trkpt>
      <trkpt lat="46.86708" lon="-1.0066">
        <ele>110</ele>
        <time>2024-10-17T23:57:31.531Z</time>
      </trkpt>
      <trkpt lat="46.86664" lon="-1.00646">
        <ele>111</ele>
        <time>2024-10-17T23:57:41.077Z</time>
      </trkpt>
      <trkpt lat="46.86595" lon="-1.00621">
        <ele>112.8</ele>
        <time>2024-10-17T23:57:56.673Z</time>
      </trkpt>
      <trkpt lat="46.86573" lon="-1.00609">
        <ele>113.7</ele>
        <time>2024-10-17T23:58:02.663Z</time>
      </trkpt>
      <trkpt lat="46.86556" lon="-1.00597">
        <ele>114.5</ele>
        <time>2024-10-17T23:58:07.721Z</time>
      </trkpt>
      <trkpt lat="46.86523" lon="-1.00577">
        <ele>114.8</ele>
        <time>2024-10-17T23:58:14.272Z</time>
      </trkpt>
      <trkpt lat="46.86488" lon="-1.00561">
        <ele>117.4</ele>
        <time>2024-10-17T23:58:28.525Z</time>
      </trkpt>
      <trkpt lat="46.86462" lon="-1.00555">
        <ele>117.4</ele>
        <time>2024-10-17T23:58:32.972Z</time>
      </trkpt>
      <trkpt lat="46.86441" lon="-1.00555">
        <ele>118.2</ele>
        <time>2024-10-17T23:58:38.314Z</time>
      </trkpt>
    </trkseg>
  </trk>
</gpx>